<?xml version="1.0" encoding="UTF-8" standalone="no" ?>
<gpx xmlns="http://www.topografix.com/GPX/1/1" xmlns:xsi="http://www.w3.org/2001/XMLSchema-instance" xsi:schemaLocation="http://www.topografix.com/GPX/1/1 http://www.topografix.com/GPX/1/1/gpx.xsd" version="1.1" creator="VisuGPX - https://www.visugpx.com">
  <metadata>
    <name>Boucle Soum de Marianette, Pic de Pène Arrouye, Pic de  Montarrouye, Lacs de Grésiolles</name>
    <desc><![CDATA[grp_trc:]]></desc>
  </metadata>
  <trk>
    <name><![CDATA[Boucle Marianette-Pène Arrouye -Montarrouye - Grésiolle 24 août 2023]]></name>
    <cmt><![CDATA[06:58:23]]></cmt>
    <desc><![CDATA[comment ...</br>
----</br>
Groupe : [nouvelles]</br>
----</br>
Groupe : [import]]]></desc>
    <trkseg>
      <trkpt lat="42.91718" lon="0.20936">
        <ele>1412</ele>
        <time>2023-08-24T04:58:22Z</time>
      </trkpt>
      <trkpt lat="42.91704" lon="0.20944">
        <ele>1416</ele>
        <time>2023-08-24T05:00:24Z</time>
      </trkpt>
      <trkpt lat="42.91696" lon="0.2095">
        <ele>1417</ele>
        <time>2023-08-24T05:00:34Z</time>
      </trkpt>
      <trkpt lat="42.91687" lon="0.20946">
        <ele>1418</ele>
        <time>2023-08-24T05:00:51Z</time>
      </trkpt>
      <trkpt lat="42.91671" lon="0.20934">
        <ele>1420</ele>
        <time>2023-08-24T05:01:12Z</time>
      </trkpt>
      <trkpt lat="42.91661" lon="0.2091">
        <ele>1418</ele>
        <time>2023-08-24T05:01:32Z</time>
      </trkpt>
      <trkpt lat="42.91654" lon="0.20925">
        <ele>1413</ele>
        <time>2023-08-24T05:02:05Z</time>
      </trkpt>
      <trkpt lat="42.91637" lon="0.20917">
        <ele>1414</ele>
        <time>2023-08-24T05:02:33Z</time>
      </trkpt>
      <trkpt lat="42.91633" lon="0.20929">
        <ele>1414</ele>
        <time>2023-08-24T05:02:45Z</time>
      </trkpt>
      <trkpt lat="42.91635" lon="0.20942">
        <ele>1414</ele>
        <time>2023-08-24T05:02:58Z</time>
      </trkpt>
      <trkpt lat="42.91641" lon="0.20967">
        <ele>1418</ele>
        <time>2023-08-24T05:03:14Z</time>
      </trkpt>
      <trkpt lat="42.9164" lon="0.20981">
        <ele>1416</ele>
        <time>2023-08-24T05:03:27Z</time>
      </trkpt>
      <trkpt lat="42.91631" lon="0.20989">
        <ele>1414</ele>
        <time>2023-08-24T05:03:40Z</time>
      </trkpt>
      <trkpt lat="42.91625" lon="0.20999">
        <ele>1416</ele>
        <time>2023-08-24T05:04:03Z</time>
      </trkpt>
      <trkpt lat="42.91618" lon="0.21007">
        <ele>1418</ele>
        <time>2023-08-24T05:04:16Z</time>
      </trkpt>
      <trkpt lat="42.91612" lon="0.21018">
        <ele>1423</ele>
        <time>2023-08-24T05:04:25Z</time>
      </trkpt>
      <trkpt lat="42.91604" lon="0.21042">
        <ele>1427</ele>
        <time>2023-08-24T05:04:48Z</time>
      </trkpt>
      <trkpt lat="42.91605" lon="0.21055">
        <ele>1429</ele>
        <time>2023-08-24T05:05:01Z</time>
      </trkpt>
      <trkpt lat="42.91602" lon="0.21066">
        <ele>1430</ele>
        <time>2023-08-24T05:05:17Z</time>
      </trkpt>
      <trkpt lat="42.91601" lon="0.21079">
        <ele>1433</ele>
        <time>2023-08-24T05:05:29Z</time>
      </trkpt>
      <trkpt lat="42.91603" lon="0.21091">
        <ele>1437</ele>
        <time>2023-08-24T05:05:42Z</time>
      </trkpt>
      <trkpt lat="42.91594" lon="0.21113">
        <ele>1439</ele>
        <time>2023-08-24T05:06:22Z</time>
      </trkpt>
      <trkpt lat="42.9159" lon="0.21124">
        <ele>1442</ele>
        <time>2023-08-24T05:06:39Z</time>
      </trkpt>
      <trkpt lat="42.91588" lon="0.21136">
        <ele>1444</ele>
        <time>2023-08-24T05:06:58Z</time>
      </trkpt>
      <trkpt lat="42.91581" lon="0.21144">
        <ele>1447</ele>
        <time>2023-08-24T05:07:33Z</time>
      </trkpt>
      <trkpt lat="42.91585" lon="0.21156">
        <ele>1455</ele>
        <time>2023-08-24T05:07:55Z</time>
      </trkpt>
      <trkpt lat="42.91582" lon="0.21169">
        <ele>1457</ele>
        <time>2023-08-24T05:08:25Z</time>
      </trkpt>
      <trkpt lat="42.91573" lon="0.21168">
        <ele>1461</ele>
        <time>2023-08-24T05:08:42Z</time>
      </trkpt>
      <trkpt lat="42.91577" lon="0.2118">
        <ele>1462</ele>
        <time>2023-08-24T05:09:24Z</time>
      </trkpt>
      <trkpt lat="42.91573" lon="0.21191">
        <ele>1464</ele>
        <time>2023-08-24T05:09:48Z</time>
      </trkpt>
      <trkpt lat="42.91572" lon="0.21204">
        <ele>1472</ele>
        <time>2023-08-24T05:10:17Z</time>
      </trkpt>
      <trkpt lat="42.91575" lon="0.21216">
        <ele>1479</ele>
        <time>2023-08-24T05:10:46Z</time>
      </trkpt>
      <trkpt lat="42.91572" lon="0.21228">
        <ele>1480</ele>
        <time>2023-08-24T05:11:07Z</time>
      </trkpt>
      <trkpt lat="42.91562" lon="0.21226">
        <ele>1481</ele>
        <time>2023-08-24T05:11:26Z</time>
      </trkpt>
      <trkpt lat="42.9156" lon="0.21238">
        <ele>1488</ele>
        <time>2023-08-24T05:12:33Z</time>
      </trkpt>
      <trkpt lat="42.9156" lon="0.2125">
        <ele>1491</ele>
        <time>2023-08-24T05:12:49Z</time>
      </trkpt>
      <trkpt lat="42.91568" lon="0.21273">
        <ele>1493</ele>
        <time>2023-08-24T05:13:30Z</time>
      </trkpt>
      <trkpt lat="42.91572" lon="0.21284">
        <ele>1495</ele>
        <time>2023-08-24T05:13:47Z</time>
      </trkpt>
      <trkpt lat="42.91577" lon="0.21294">
        <ele>1500</ele>
        <time>2023-08-24T05:14:02Z</time>
      </trkpt>
      <trkpt lat="42.91585" lon="0.21302">
        <ele>1503</ele>
        <time>2023-08-24T05:14:29Z</time>
      </trkpt>
      <trkpt lat="42.91592" lon="0.21311">
        <ele>1505</ele>
        <time>2023-08-24T05:14:52Z</time>
      </trkpt>
      <trkpt lat="42.91592" lon="0.21324">
        <ele>1507</ele>
        <time>2023-08-24T05:15:21Z</time>
      </trkpt>
      <trkpt lat="42.91598" lon="0.21333">
        <ele>1516</ele>
        <time>2023-08-24T05:16:06Z</time>
      </trkpt>
      <trkpt lat="42.91596" lon="0.21345">
        <ele>1518</ele>
        <time>2023-08-24T05:16:26Z</time>
      </trkpt>
      <trkpt lat="42.91598" lon="0.21359">
        <ele>1524</ele>
        <time>2023-08-24T05:17:38Z</time>
      </trkpt>
      <trkpt lat="42.91596" lon="0.21371">
        <ele>1527</ele>
        <time>2023-08-24T05:18:02Z</time>
      </trkpt>
      <trkpt lat="42.91593" lon="0.21384">
        <ele>1533</ele>
        <time>2023-08-24T05:18:21Z</time>
      </trkpt>
      <trkpt lat="42.91588" lon="0.21394">
        <ele>1536</ele>
        <time>2023-08-24T05:18:47Z</time>
      </trkpt>
      <trkpt lat="42.91583" lon="0.21405">
        <ele>1542</ele>
        <time>2023-08-24T05:19:07Z</time>
      </trkpt>
      <trkpt lat="42.91581" lon="0.21416">
        <ele>1544</ele>
        <time>2023-08-24T05:19:22Z</time>
      </trkpt>
      <trkpt lat="42.91577" lon="0.21428">
        <ele>1547</ele>
        <time>2023-08-24T05:19:45Z</time>
      </trkpt>
      <trkpt lat="42.91572" lon="0.21438">
        <ele>1549</ele>
        <time>2023-08-24T05:20:02Z</time>
      </trkpt>
      <trkpt lat="42.91568" lon="0.21463">
        <ele>1553</ele>
        <time>2023-08-24T05:20:27Z</time>
      </trkpt>
      <trkpt lat="42.91564" lon="0.21475">
        <ele>1554</ele>
        <time>2023-08-24T05:20:46Z</time>
      </trkpt>
      <trkpt lat="42.91557" lon="0.21485">
        <ele>1554</ele>
        <time>2023-08-24T05:21:17Z</time>
      </trkpt>
      <trkpt lat="42.91554" lon="0.21499">
        <ele>1555</ele>
        <time>2023-08-24T05:21:28Z</time>
      </trkpt>
      <trkpt lat="42.91549" lon="0.21508">
        <ele>1555</ele>
        <time>2023-08-24T05:21:37Z</time>
      </trkpt>
      <trkpt lat="42.91547" lon="0.21521">
        <ele>1555</ele>
        <time>2023-08-24T05:21:48Z</time>
      </trkpt>
      <trkpt lat="42.91536" lon="0.21557">
        <ele>1557</ele>
        <time>2023-08-24T05:22:18Z</time>
      </trkpt>
      <trkpt lat="42.91528" lon="0.2158">
        <ele>1559</ele>
        <time>2023-08-24T05:22:36Z</time>
      </trkpt>
      <trkpt lat="42.91522" lon="0.2159">
        <ele>1558</ele>
        <time>2023-08-24T05:22:44Z</time>
      </trkpt>
      <trkpt lat="42.91518" lon="0.21601">
        <ele>1558</ele>
        <time>2023-08-24T05:22:53Z</time>
      </trkpt>
      <trkpt lat="42.9149" lon="0.21638">
        <ele>1558</ele>
        <time>2023-08-24T05:23:31Z</time>
      </trkpt>
      <trkpt lat="42.9148" lon="0.21649">
        <ele>1558</ele>
        <time>2023-08-24T05:23:47Z</time>
      </trkpt>
      <trkpt lat="42.91475" lon="0.21659">
        <ele>1558</ele>
        <time>2023-08-24T05:23:58Z</time>
      </trkpt>
      <trkpt lat="42.91463" lon="0.21673">
        <ele>1559</ele>
        <time>2023-08-24T05:24:14Z</time>
      </trkpt>
      <trkpt lat="42.91457" lon="0.21683">
        <ele>1559</ele>
        <time>2023-08-24T05:24:27Z</time>
      </trkpt>
      <trkpt lat="42.91447" lon="0.21717">
        <ele>1559</ele>
        <time>2023-08-24T05:24:56Z</time>
      </trkpt>
      <trkpt lat="42.91447" lon="0.21733">
        <ele>1560</ele>
        <time>2023-08-24T05:25:09Z</time>
      </trkpt>
      <trkpt lat="42.91454" lon="0.21763">
        <ele>1563</ele>
        <time>2023-08-24T05:25:42Z</time>
      </trkpt>
      <trkpt lat="42.91453" lon="0.21774">
        <ele>1564</ele>
        <time>2023-08-24T05:25:52Z</time>
      </trkpt>
      <trkpt lat="42.91454" lon="0.21787">
        <ele>1566</ele>
        <time>2023-08-24T05:26:03Z</time>
      </trkpt>
      <trkpt lat="42.91455" lon="0.218">
        <ele>1568</ele>
        <time>2023-08-24T05:26:14Z</time>
      </trkpt>
      <trkpt lat="42.91452" lon="0.21824">
        <ele>1571</ele>
        <time>2023-08-24T05:26:40Z</time>
      </trkpt>
      <trkpt lat="42.91448" lon="0.21835">
        <ele>1573</ele>
        <time>2023-08-24T05:26:55Z</time>
      </trkpt>
      <trkpt lat="42.91441" lon="0.21843">
        <ele>1573</ele>
        <time>2023-08-24T05:27:10Z</time>
      </trkpt>
      <trkpt lat="42.91437" lon="0.21854">
        <ele>1574</ele>
        <time>2023-08-24T05:27:28Z</time>
      </trkpt>
      <trkpt lat="42.91428" lon="0.21876">
        <ele>1577</ele>
        <time>2023-08-24T05:28:06Z</time>
      </trkpt>
      <trkpt lat="42.9142" lon="0.2189">
        <ele>1585</ele>
        <time>2023-08-24T05:28:32Z</time>
      </trkpt>
      <trkpt lat="42.91412" lon="0.21893">
        <ele>1588</ele>
        <time>2023-08-24T05:28:45Z</time>
      </trkpt>
      <trkpt lat="42.91402" lon="0.21898">
        <ele>1593</ele>
        <time>2023-08-24T05:29:03Z</time>
      </trkpt>
      <trkpt lat="42.914" lon="0.2191">
        <ele>1596</ele>
        <time>2023-08-24T05:29:25Z</time>
      </trkpt>
      <trkpt lat="42.91399" lon="0.21923">
        <ele>1601</ele>
        <time>2023-08-24T05:29:47Z</time>
      </trkpt>
      <trkpt lat="42.91407" lon="0.2193">
        <ele>1602</ele>
        <time>2023-08-24T05:30:16Z</time>
      </trkpt>
      <trkpt lat="42.91415" lon="0.21938">
        <ele>1605</ele>
        <time>2023-08-24T05:30:33Z</time>
      </trkpt>
      <trkpt lat="42.91424" lon="0.21942">
        <ele>1607</ele>
        <time>2023-08-24T05:30:48Z</time>
      </trkpt>
      <trkpt lat="42.91441" lon="0.2195">
        <ele>1614</ele>
        <time>2023-08-24T05:31:22Z</time>
      </trkpt>
      <trkpt lat="42.9145" lon="0.21954">
        <ele>1616</ele>
        <time>2023-08-24T05:31:38Z</time>
      </trkpt>
      <trkpt lat="42.91459" lon="0.21959">
        <ele>1619</ele>
        <time>2023-08-24T05:31:54Z</time>
      </trkpt>
      <trkpt lat="42.91465" lon="0.21968">
        <ele>1622</ele>
        <time>2023-08-24T05:32:13Z</time>
      </trkpt>
      <trkpt lat="42.91472" lon="0.21977">
        <ele>1626</ele>
        <time>2023-08-24T05:32:34Z</time>
      </trkpt>
      <trkpt lat="42.91479" lon="0.21982">
        <ele>1630</ele>
        <time>2023-08-24T05:32:55Z</time>
      </trkpt>
      <trkpt lat="42.91484" lon="0.21992">
        <ele>1636</ele>
        <time>2023-08-24T05:33:19Z</time>
      </trkpt>
      <trkpt lat="42.91493" lon="0.22012">
        <ele>1644</ele>
        <time>2023-08-24T05:34:04Z</time>
      </trkpt>
      <trkpt lat="42.91485" lon="0.22024">
        <ele>1649</ele>
        <time>2023-08-24T05:34:41Z</time>
      </trkpt>
      <trkpt lat="42.91486" lon="0.22038">
        <ele>1654</ele>
        <time>2023-08-24T05:36:18Z</time>
      </trkpt>
      <trkpt lat="42.91481" lon="0.22048">
        <ele>1659</ele>
        <time>2023-08-24T05:36:43Z</time>
      </trkpt>
      <trkpt lat="42.91474" lon="0.22052">
        <ele>1663</ele>
        <time>2023-08-24T05:36:56Z</time>
      </trkpt>
      <trkpt lat="42.91466" lon="0.22058">
        <ele>1666</ele>
        <time>2023-08-24T05:37:22Z</time>
      </trkpt>
      <trkpt lat="42.91458" lon="0.22068">
        <ele>1670</ele>
        <time>2023-08-24T05:37:43Z</time>
      </trkpt>
      <trkpt lat="42.91444" lon="0.22084">
        <ele>1676</ele>
        <time>2023-08-24T05:38:15Z</time>
      </trkpt>
      <trkpt lat="42.91435" lon="0.22092">
        <ele>1679</ele>
        <time>2023-08-24T05:38:38Z</time>
      </trkpt>
      <trkpt lat="42.91428" lon="0.22098">
        <ele>1682</ele>
        <time>2023-08-24T05:40:08Z</time>
      </trkpt>
      <trkpt lat="42.91422" lon="0.22105">
        <ele>1683</ele>
        <time>2023-08-24T05:40:19Z</time>
      </trkpt>
      <trkpt lat="42.91416" lon="0.22109">
        <ele>1685</ele>
        <time>2023-08-24T05:40:28Z</time>
      </trkpt>
      <trkpt lat="42.91407" lon="0.22116">
        <ele>1688</ele>
        <time>2023-08-24T05:40:43Z</time>
      </trkpt>
      <trkpt lat="42.91396" lon="0.22121">
        <ele>1689</ele>
        <time>2023-08-24T05:40:58Z</time>
      </trkpt>
      <trkpt lat="42.91382" lon="0.22134">
        <ele>1688</ele>
        <time>2023-08-24T05:41:18Z</time>
      </trkpt>
      <trkpt lat="42.91373" lon="0.22131">
        <ele>1688</ele>
        <time>2023-08-24T05:41:33Z</time>
      </trkpt>
      <trkpt lat="42.91363" lon="0.22128">
        <ele>1690</ele>
        <time>2023-08-24T05:41:42Z</time>
      </trkpt>
      <trkpt lat="42.91355" lon="0.22122">
        <ele>1692</ele>
        <time>2023-08-24T05:42:01Z</time>
      </trkpt>
      <trkpt lat="42.91345" lon="0.22114">
        <ele>1696</ele>
        <time>2023-08-24T05:42:21Z</time>
      </trkpt>
      <trkpt lat="42.91338" lon="0.22125">
        <ele>1699</ele>
        <time>2023-08-24T05:42:40Z</time>
      </trkpt>
      <trkpt lat="42.91335" lon="0.22135">
        <ele>1703</ele>
        <time>2023-08-24T05:43:15Z</time>
      </trkpt>
      <trkpt lat="42.91327" lon="0.22143">
        <ele>1705</ele>
        <time>2023-08-24T05:43:36Z</time>
      </trkpt>
      <trkpt lat="42.91322" lon="0.22153">
        <ele>1713</ele>
        <time>2023-08-24T05:44:09Z</time>
      </trkpt>
      <trkpt lat="42.91321" lon="0.22166">
        <ele>1714</ele>
        <time>2023-08-24T05:44:31Z</time>
      </trkpt>
      <trkpt lat="42.91312" lon="0.22164">
        <ele>1719</ele>
        <time>2023-08-24T05:45:07Z</time>
      </trkpt>
      <trkpt lat="42.91304" lon="0.22161">
        <ele>1721</ele>
        <time>2023-08-24T05:45:24Z</time>
      </trkpt>
      <trkpt lat="42.91295" lon="0.22166">
        <ele>1723</ele>
        <time>2023-08-24T05:45:41Z</time>
      </trkpt>
      <trkpt lat="42.91286" lon="0.22168">
        <ele>1725</ele>
        <time>2023-08-24T05:45:59Z</time>
      </trkpt>
      <trkpt lat="42.91277" lon="0.2217">
        <ele>1731</ele>
        <time>2023-08-24T05:46:14Z</time>
      </trkpt>
      <trkpt lat="42.91257" lon="0.22162">
        <ele>1737</ele>
        <time>2023-08-24T05:47:00Z</time>
      </trkpt>
      <trkpt lat="42.91246" lon="0.22156">
        <ele>1743</ele>
        <time>2023-08-24T05:47:33Z</time>
      </trkpt>
      <trkpt lat="42.91239" lon="0.22164">
        <ele>1743</ele>
        <time>2023-08-24T05:49:15Z</time>
      </trkpt>
      <trkpt lat="42.91234" lon="0.22174">
        <ele>1745</ele>
        <time>2023-08-24T05:49:32Z</time>
      </trkpt>
      <trkpt lat="42.91227" lon="0.22182">
        <ele>1747</ele>
        <time>2023-08-24T05:49:53Z</time>
      </trkpt>
      <trkpt lat="42.9122" lon="0.22191">
        <ele>1753</ele>
        <time>2023-08-24T05:50:09Z</time>
      </trkpt>
      <trkpt lat="42.9121" lon="0.22201">
        <ele>1757</ele>
        <time>2023-08-24T05:50:34Z</time>
      </trkpt>
      <trkpt lat="42.91205" lon="0.22209">
        <ele>1760</ele>
        <time>2023-08-24T05:50:49Z</time>
      </trkpt>
      <trkpt lat="42.91193" lon="0.22223">
        <ele>1766</ele>
        <time>2023-08-24T05:51:18Z</time>
      </trkpt>
      <trkpt lat="42.91187" lon="0.22229">
        <ele>1769</ele>
        <time>2023-08-24T05:51:30Z</time>
      </trkpt>
      <trkpt lat="42.91182" lon="0.22239">
        <ele>1771</ele>
        <time>2023-08-24T05:51:50Z</time>
      </trkpt>
      <trkpt lat="42.91173" lon="0.22243">
        <ele>1775</ele>
        <time>2023-08-24T05:52:09Z</time>
      </trkpt>
      <trkpt lat="42.91171" lon="0.22255">
        <ele>1778</ele>
        <time>2023-08-24T05:52:31Z</time>
      </trkpt>
      <trkpt lat="42.91166" lon="0.22266">
        <ele>1784</ele>
        <time>2023-08-24T05:52:50Z</time>
      </trkpt>
      <trkpt lat="42.91158" lon="0.22273">
        <ele>1785</ele>
        <time>2023-08-24T05:53:07Z</time>
      </trkpt>
      <trkpt lat="42.91149" lon="0.22295">
        <ele>1793</ele>
        <time>2023-08-24T05:53:49Z</time>
      </trkpt>
      <trkpt lat="42.91146" lon="0.22307">
        <ele>1795</ele>
        <time>2023-08-24T05:54:32Z</time>
      </trkpt>
      <trkpt lat="42.91141" lon="0.22317">
        <ele>1796</ele>
        <time>2023-08-24T05:54:46Z</time>
      </trkpt>
      <trkpt lat="42.91134" lon="0.22326">
        <ele>1799</ele>
        <time>2023-08-24T05:55:01Z</time>
      </trkpt>
      <trkpt lat="42.91126" lon="0.22332">
        <ele>1801</ele>
        <time>2023-08-24T05:55:17Z</time>
      </trkpt>
      <trkpt lat="42.91117" lon="0.22337">
        <ele>1805</ele>
        <time>2023-08-24T05:55:32Z</time>
      </trkpt>
      <trkpt lat="42.9112" lon="0.22349">
        <ele>1810</ele>
        <time>2023-08-24T05:56:18Z</time>
      </trkpt>
      <trkpt lat="42.91113" lon="0.22358">
        <ele>1814</ele>
        <time>2023-08-24T05:57:37Z</time>
      </trkpt>
      <trkpt lat="42.91109" lon="0.22368">
        <ele>1814</ele>
        <time>2023-08-24T05:57:48Z</time>
      </trkpt>
      <trkpt lat="42.91103" lon="0.22373">
        <ele>1816</ele>
        <time>2023-08-24T05:58:02Z</time>
      </trkpt>
      <trkpt lat="42.91105" lon="0.22383">
        <ele>1821</ele>
        <time>2023-08-24T05:58:18Z</time>
      </trkpt>
      <trkpt lat="42.91102" lon="0.22397">
        <ele>1824</ele>
        <time>2023-08-24T05:58:46Z</time>
      </trkpt>
      <trkpt lat="42.91095" lon="0.22409">
        <ele>1830</ele>
        <time>2023-08-24T05:59:04Z</time>
      </trkpt>
      <trkpt lat="42.911" lon="0.22422">
        <ele>1833</ele>
        <time>2023-08-24T05:59:42Z</time>
      </trkpt>
      <trkpt lat="42.91106" lon="0.22434">
        <ele>1836</ele>
        <time>2023-08-24T06:00:01Z</time>
      </trkpt>
      <trkpt lat="42.91099" lon="0.22451">
        <ele>1841</ele>
        <time>2023-08-24T06:00:26Z</time>
      </trkpt>
      <trkpt lat="42.91089" lon="0.22465">
        <ele>1844</ele>
        <time>2023-08-24T06:00:52Z</time>
      </trkpt>
      <trkpt lat="42.91093" lon="0.22478">
        <ele>1848</ele>
        <time>2023-08-24T06:01:12Z</time>
      </trkpt>
      <trkpt lat="42.91098" lon="0.22486">
        <ele>1851</ele>
        <time>2023-08-24T06:01:25Z</time>
      </trkpt>
      <trkpt lat="42.91087" lon="0.22504">
        <ele>1855</ele>
        <time>2023-08-24T06:01:54Z</time>
      </trkpt>
      <trkpt lat="42.91077" lon="0.22519">
        <ele>1860</ele>
        <time>2023-08-24T06:02:18Z</time>
      </trkpt>
      <trkpt lat="42.91082" lon="0.22536">
        <ele>1862</ele>
        <time>2023-08-24T06:02:39Z</time>
      </trkpt>
      <trkpt lat="42.91089" lon="0.22553">
        <ele>1866</ele>
        <time>2023-08-24T06:02:58Z</time>
      </trkpt>
      <trkpt lat="42.91093" lon="0.22567">
        <ele>1870</ele>
        <time>2023-08-24T06:03:10Z</time>
      </trkpt>
      <trkpt lat="42.91098" lon="0.22581">
        <ele>1872</ele>
        <time>2023-08-24T06:03:24Z</time>
      </trkpt>
      <trkpt lat="42.91102" lon="0.22614">
        <ele>1875</ele>
        <time>2023-08-24T06:03:59Z</time>
      </trkpt>
      <trkpt lat="42.91104" lon="0.22626">
        <ele>1877</ele>
        <time>2023-08-24T06:04:10Z</time>
      </trkpt>
      <trkpt lat="42.91099" lon="0.22635">
        <ele>1876</ele>
        <time>2023-08-24T06:07:02Z</time>
      </trkpt>
      <trkpt lat="42.91091" lon="0.22635">
        <ele>1877</ele>
        <time>2023-08-24T06:07:11Z</time>
      </trkpt>
      <trkpt lat="42.91085" lon="0.2264">
        <ele>1878</ele>
        <time>2023-08-24T06:07:20Z</time>
      </trkpt>
      <trkpt lat="42.91061" lon="0.22664">
        <ele>1881</ele>
        <time>2023-08-24T06:07:58Z</time>
      </trkpt>
      <trkpt lat="42.91047" lon="0.22677">
        <ele>1882</ele>
        <time>2023-08-24T06:08:22Z</time>
      </trkpt>
      <trkpt lat="42.91039" lon="0.22683">
        <ele>1885</ele>
        <time>2023-08-24T06:08:35Z</time>
      </trkpt>
      <trkpt lat="42.9103" lon="0.22683">
        <ele>1886</ele>
        <time>2023-08-24T06:08:48Z</time>
      </trkpt>
      <trkpt lat="42.91013" lon="0.22692">
        <ele>1891</ele>
        <time>2023-08-24T06:09:19Z</time>
      </trkpt>
      <trkpt lat="42.91004" lon="0.2269">
        <ele>1895</ele>
        <time>2023-08-24T06:09:38Z</time>
      </trkpt>
      <trkpt lat="42.90995" lon="0.22693">
        <ele>1897</ele>
        <time>2023-08-24T06:09:54Z</time>
      </trkpt>
      <trkpt lat="42.90977" lon="0.22698">
        <ele>1902</ele>
        <time>2023-08-24T06:10:29Z</time>
      </trkpt>
      <trkpt lat="42.90968" lon="0.22699">
        <ele>1907</ele>
        <time>2023-08-24T06:10:47Z</time>
      </trkpt>
      <trkpt lat="42.90959" lon="0.227">
        <ele>1910</ele>
        <time>2023-08-24T06:11:10Z</time>
      </trkpt>
      <trkpt lat="42.9095" lon="0.22705">
        <ele>1916</ele>
        <time>2023-08-24T06:11:30Z</time>
      </trkpt>
      <trkpt lat="42.90942" lon="0.22701">
        <ele>1917</ele>
        <time>2023-08-24T06:11:48Z</time>
      </trkpt>
      <trkpt lat="42.90933" lon="0.22699">
        <ele>1924</ele>
        <time>2023-08-24T06:12:13Z</time>
      </trkpt>
      <trkpt lat="42.90929" lon="0.2271">
        <ele>1926</ele>
        <time>2023-08-24T06:12:31Z</time>
      </trkpt>
      <trkpt lat="42.90918" lon="0.22703">
        <ele>1933</ele>
        <time>2023-08-24T06:13:25Z</time>
      </trkpt>
      <trkpt lat="42.90903" lon="0.22694">
        <ele>1940</ele>
        <time>2023-08-24T06:13:58Z</time>
      </trkpt>
      <trkpt lat="42.90897" lon="0.22701">
        <ele>1943</ele>
        <time>2023-08-24T06:14:16Z</time>
      </trkpt>
      <trkpt lat="42.90889" lon="0.22716">
        <ele>1950</ele>
        <time>2023-08-24T06:14:58Z</time>
      </trkpt>
      <trkpt lat="42.9088" lon="0.22707">
        <ele>1952</ele>
        <time>2023-08-24T06:15:20Z</time>
      </trkpt>
      <trkpt lat="42.90868" lon="0.2271">
        <ele>1960</ele>
        <time>2023-08-24T06:16:48Z</time>
      </trkpt>
      <trkpt lat="42.90857" lon="0.22707">
        <ele>1968</ele>
        <time>2023-08-24T06:17:18Z</time>
      </trkpt>
      <trkpt lat="42.90847" lon="0.22709">
        <ele>1973</ele>
        <time>2023-08-24T06:17:47Z</time>
      </trkpt>
      <trkpt lat="42.90833" lon="0.22696">
        <ele>1979</ele>
        <time>2023-08-24T06:18:29Z</time>
      </trkpt>
      <trkpt lat="42.90811" lon="0.22671">
        <ele>1992</ele>
        <time>2023-08-24T06:19:45Z</time>
      </trkpt>
      <trkpt lat="42.90805" lon="0.22665">
        <ele>1994</ele>
        <time>2023-08-24T06:19:57Z</time>
      </trkpt>
      <trkpt lat="42.90797" lon="0.2266">
        <ele>1995</ele>
        <time>2023-08-24T06:20:16Z</time>
      </trkpt>
      <trkpt lat="42.9079" lon="0.22652">
        <ele>2000</ele>
        <time>2023-08-24T06:20:49Z</time>
      </trkpt>
      <trkpt lat="42.90782" lon="0.22648">
        <ele>2001</ele>
        <time>2023-08-24T06:21:11Z</time>
      </trkpt>
      <trkpt lat="42.90773" lon="0.22644">
        <ele>2006</ele>
        <time>2023-08-24T06:21:31Z</time>
      </trkpt>
      <trkpt lat="42.90765" lon="0.22637">
        <ele>2008</ele>
        <time>2023-08-24T06:21:58Z</time>
      </trkpt>
      <trkpt lat="42.90756" lon="0.22633">
        <ele>2014</ele>
        <time>2023-08-24T06:22:21Z</time>
      </trkpt>
      <trkpt lat="42.9075" lon="0.22624">
        <ele>2018</ele>
        <time>2023-08-24T06:23:24Z</time>
      </trkpt>
      <trkpt lat="42.90743" lon="0.22618">
        <ele>2021</ele>
        <time>2023-08-24T06:23:44Z</time>
      </trkpt>
      <trkpt lat="42.90734" lon="0.22614">
        <ele>2022</ele>
        <time>2023-08-24T06:24:05Z</time>
      </trkpt>
      <trkpt lat="42.90725" lon="0.2261">
        <ele>2028</ele>
        <time>2023-08-24T06:24:32Z</time>
      </trkpt>
      <trkpt lat="42.90718" lon="0.22603">
        <ele>2029</ele>
        <time>2023-08-24T06:24:56Z</time>
      </trkpt>
      <trkpt lat="42.90711" lon="0.22595">
        <ele>2035</ele>
        <time>2023-08-24T06:25:18Z</time>
      </trkpt>
      <trkpt lat="42.90703" lon="0.22588">
        <ele>2037</ele>
        <time>2023-08-24T06:25:39Z</time>
      </trkpt>
      <trkpt lat="42.90695" lon="0.22582">
        <ele>2043</ele>
        <time>2023-08-24T06:26:11Z</time>
      </trkpt>
      <trkpt lat="42.90687" lon="0.22576">
        <ele>2044</ele>
        <time>2023-08-24T06:26:32Z</time>
      </trkpt>
      <trkpt lat="42.90669" lon="0.22568">
        <ele>2056</ele>
        <time>2023-08-24T06:27:45Z</time>
      </trkpt>
      <trkpt lat="42.90662" lon="0.22564">
        <ele>2060</ele>
        <time>2023-08-24T06:28:05Z</time>
      </trkpt>
      <trkpt lat="42.90653" lon="0.22559">
        <ele>2062</ele>
        <time>2023-08-24T06:28:27Z</time>
      </trkpt>
      <trkpt lat="42.90646" lon="0.22553">
        <ele>2064</ele>
        <time>2023-08-24T06:28:52Z</time>
      </trkpt>
      <trkpt lat="42.90637" lon="0.2255">
        <ele>2069</ele>
        <time>2023-08-24T06:29:18Z</time>
      </trkpt>
      <trkpt lat="42.90631" lon="0.22544">
        <ele>2071</ele>
        <time>2023-08-24T06:30:08Z</time>
      </trkpt>
      <trkpt lat="42.90622" lon="0.22536">
        <ele>2075</ele>
        <time>2023-08-24T06:30:30Z</time>
      </trkpt>
      <trkpt lat="42.90613" lon="0.22531">
        <ele>2079</ele>
        <time>2023-08-24T06:30:52Z</time>
      </trkpt>
      <trkpt lat="42.906" lon="0.22523">
        <ele>2085</ele>
        <time>2023-08-24T06:31:20Z</time>
      </trkpt>
      <trkpt lat="42.90589" lon="0.22515">
        <ele>2089</ele>
        <time>2023-08-24T06:32:01Z</time>
      </trkpt>
      <trkpt lat="42.90576" lon="0.22507">
        <ele>2096</ele>
        <time>2023-08-24T06:32:47Z</time>
      </trkpt>
      <trkpt lat="42.90569" lon="0.22504">
        <ele>2097</ele>
        <time>2023-08-24T06:33:00Z</time>
      </trkpt>
      <trkpt lat="42.90559" lon="0.22502">
        <ele>2102</ele>
        <time>2023-08-24T06:33:44Z</time>
      </trkpt>
      <trkpt lat="42.90545" lon="0.22503">
        <ele>2112</ele>
        <time>2023-08-24T06:34:54Z</time>
      </trkpt>
      <trkpt lat="42.90538" lon="0.22512">
        <ele>2121</ele>
        <time>2023-08-24T06:37:48Z</time>
      </trkpt>
      <trkpt lat="42.90527" lon="0.22506">
        <ele>2120</ele>
        <time>2023-08-24T06:38:14Z</time>
      </trkpt>
      <trkpt lat="42.90518" lon="0.22511">
        <ele>2125</ele>
        <time>2023-08-24T06:38:48Z</time>
      </trkpt>
      <trkpt lat="42.90521" lon="0.22523">
        <ele>2127</ele>
        <time>2023-08-24T06:39:20Z</time>
      </trkpt>
      <trkpt lat="42.90509" lon="0.22543">
        <ele>2139</ele>
        <time>2023-08-24T06:40:11Z</time>
      </trkpt>
      <trkpt lat="42.905" lon="0.22545">
        <ele>2141</ele>
        <time>2023-08-24T06:40:41Z</time>
      </trkpt>
      <trkpt lat="42.90492" lon="0.22551">
        <ele>2151</ele>
        <time>2023-08-24T06:43:33Z</time>
      </trkpt>
      <trkpt lat="42.90483" lon="0.22548">
        <ele>2151</ele>
        <time>2023-08-24T06:43:57Z</time>
      </trkpt>
      <trkpt lat="42.90482" lon="0.22561">
        <ele>2158</ele>
        <time>2023-08-24T06:44:55Z</time>
      </trkpt>
      <trkpt lat="42.90481" lon="0.22573">
        <ele>2169</ele>
        <time>2023-08-24T06:45:26Z</time>
      </trkpt>
      <trkpt lat="42.90486" lon="0.22585">
        <ele>2174</ele>
        <time>2023-08-24T06:45:45Z</time>
      </trkpt>
      <trkpt lat="42.90467" lon="0.22582">
        <ele>2175</ele>
        <time>2023-08-24T06:46:19Z</time>
      </trkpt>
      <trkpt lat="42.90459" lon="0.22578">
        <ele>2178</ele>
        <time>2023-08-24T06:46:42Z</time>
      </trkpt>
      <trkpt lat="42.90459" lon="0.22591">
        <ele>2182</ele>
        <time>2023-08-24T06:47:15Z</time>
      </trkpt>
      <trkpt lat="42.90453" lon="0.226">
        <ele>2191</ele>
        <time>2023-08-24T06:47:42Z</time>
      </trkpt>
      <trkpt lat="42.90444" lon="0.22597">
        <ele>2191</ele>
        <time>2023-08-24T06:47:58Z</time>
      </trkpt>
      <trkpt lat="42.90435" lon="0.22598">
        <ele>2197</ele>
        <time>2023-08-24T06:48:25Z</time>
      </trkpt>
      <trkpt lat="42.9043" lon="0.22608">
        <ele>2198</ele>
        <time>2023-08-24T06:48:51Z</time>
      </trkpt>
      <trkpt lat="42.90422" lon="0.22603">
        <ele>2200</ele>
        <time>2023-08-24T06:49:12Z</time>
      </trkpt>
      <trkpt lat="42.90413" lon="0.22604">
        <ele>2207</ele>
        <time>2023-08-24T06:49:32Z</time>
      </trkpt>
      <trkpt lat="42.90409" lon="0.22615">
        <ele>2208</ele>
        <time>2023-08-24T06:50:26Z</time>
      </trkpt>
      <trkpt lat="42.90402" lon="0.22622">
        <ele>2214</ele>
        <time>2023-08-24T06:50:49Z</time>
      </trkpt>
      <trkpt lat="42.90393" lon="0.22627">
        <ele>2218</ele>
        <time>2023-08-24T06:51:15Z</time>
      </trkpt>
      <trkpt lat="42.90388" lon="0.22637">
        <ele>2226</ele>
        <time>2023-08-24T06:51:48Z</time>
      </trkpt>
      <trkpt lat="42.90384" lon="0.22649">
        <ele>2228</ele>
        <time>2023-08-24T06:52:14Z</time>
      </trkpt>
      <trkpt lat="42.90376" lon="0.22654">
        <ele>2233</ele>
        <time>2023-08-24T06:52:28Z</time>
      </trkpt>
      <trkpt lat="42.90358" lon="0.2265">
        <ele>2235</ele>
        <time>2023-08-24T06:53:16Z</time>
      </trkpt>
      <trkpt lat="42.90348" lon="0.22651">
        <ele>2236</ele>
        <time>2023-08-24T06:53:32Z</time>
      </trkpt>
      <trkpt lat="42.90339" lon="0.22652">
        <ele>2244</ele>
        <time>2023-08-24T06:54:01Z</time>
      </trkpt>
      <trkpt lat="42.90322" lon="0.22643">
        <ele>2249</ele>
        <time>2023-08-24T06:54:27Z</time>
      </trkpt>
      <trkpt lat="42.90315" lon="0.22651">
        <ele>2251</ele>
        <time>2023-08-24T06:54:50Z</time>
      </trkpt>
      <trkpt lat="42.90307" lon="0.22659">
        <ele>2257</ele>
        <time>2023-08-24T06:55:09Z</time>
      </trkpt>
      <trkpt lat="42.90298" lon="0.22661">
        <ele>2259</ele>
        <time>2023-08-24T06:55:21Z</time>
      </trkpt>
      <trkpt lat="42.90289" lon="0.22666">
        <ele>2261</ele>
        <time>2023-08-24T06:55:36Z</time>
      </trkpt>
      <trkpt lat="42.9028" lon="0.22665">
        <ele>2262</ele>
        <time>2023-08-24T06:55:49Z</time>
      </trkpt>
      <trkpt lat="42.90274" lon="0.22658">
        <ele>2269</ele>
        <time>2023-08-24T07:00:23Z</time>
      </trkpt>
      <trkpt lat="42.90256" lon="0.22631">
        <ele>2270</ele>
        <time>2023-08-24T07:01:02Z</time>
      </trkpt>
      <trkpt lat="42.90244" lon="0.22615">
        <ele>2271</ele>
        <time>2023-08-24T07:01:23Z</time>
      </trkpt>
      <trkpt lat="42.90238" lon="0.22605">
        <ele>2274</ele>
        <time>2023-08-24T07:01:37Z</time>
      </trkpt>
      <trkpt lat="42.9023" lon="0.22599">
        <ele>2274</ele>
        <time>2023-08-24T07:01:54Z</time>
      </trkpt>
      <trkpt lat="42.90223" lon="0.22589">
        <ele>2279</ele>
        <time>2023-08-24T07:02:08Z</time>
      </trkpt>
      <trkpt lat="42.90215" lon="0.22584">
        <ele>2279</ele>
        <time>2023-08-24T07:02:21Z</time>
      </trkpt>
      <trkpt lat="42.90198" lon="0.22572">
        <ele>2281</ele>
        <time>2023-08-24T07:02:43Z</time>
      </trkpt>
      <trkpt lat="42.9019" lon="0.22565">
        <ele>2283</ele>
        <time>2023-08-24T07:02:56Z</time>
      </trkpt>
      <trkpt lat="42.90183" lon="0.2256">
        <ele>2285</ele>
        <time>2023-08-24T07:03:11Z</time>
      </trkpt>
      <trkpt lat="42.90166" lon="0.22549">
        <ele>2291</ele>
        <time>2023-08-24T07:04:18Z</time>
      </trkpt>
      <trkpt lat="42.90156" lon="0.22538">
        <ele>2296</ele>
        <time>2023-08-24T07:04:40Z</time>
      </trkpt>
      <trkpt lat="42.90151" lon="0.22526">
        <ele>2300</ele>
        <time>2023-08-24T07:04:57Z</time>
      </trkpt>
      <trkpt lat="42.90144" lon="0.22523">
        <ele>2302</ele>
        <time>2023-08-24T07:05:09Z</time>
      </trkpt>
      <trkpt lat="42.90136" lon="0.22526">
        <ele>2303</ele>
        <time>2023-08-24T07:05:19Z</time>
      </trkpt>
      <trkpt lat="42.90126" lon="0.22521">
        <ele>2306</ele>
        <time>2023-08-24T07:05:38Z</time>
      </trkpt>
      <trkpt lat="42.90118" lon="0.22514">
        <ele>2307</ele>
        <time>2023-08-24T07:06:09Z</time>
      </trkpt>
      <trkpt lat="42.90115" lon="0.22505">
        <ele>2309</ele>
        <time>2023-08-24T07:06:27Z</time>
      </trkpt>
      <trkpt lat="42.90003" lon="0.22469">
        <ele>2353</ele>
        <time>2023-08-24T07:12:41Z</time>
      </trkpt>
      <trkpt lat="42.89986" lon="0.22481">
        <ele>2360</ele>
        <time>2023-08-24T07:13:24Z</time>
      </trkpt>
      <trkpt lat="42.89961" lon="0.22495">
        <ele>2365</ele>
        <time>2023-08-24T07:13:56Z</time>
      </trkpt>
      <trkpt lat="42.89952" lon="0.22497">
        <ele>2365</ele>
        <time>2023-08-24T07:14:08Z</time>
      </trkpt>
      <trkpt lat="42.89944" lon="0.22505">
        <ele>2369</ele>
        <time>2023-08-24T07:14:19Z</time>
      </trkpt>
      <trkpt lat="42.89943" lon="0.22517">
        <ele>2369</ele>
        <time>2023-08-24T07:14:31Z</time>
      </trkpt>
      <trkpt lat="42.89929" lon="0.22536">
        <ele>2370</ele>
        <time>2023-08-24T07:14:53Z</time>
      </trkpt>
      <trkpt lat="42.89916" lon="0.22527">
        <ele>2368</ele>
        <time>2023-08-24T07:19:51Z</time>
      </trkpt>
      <trkpt lat="42.89909" lon="0.22519">
        <ele>2364</ele>
        <time>2023-08-24T07:20:01Z</time>
      </trkpt>
      <trkpt lat="42.89882" lon="0.22506">
        <ele>2361</ele>
        <time>2023-08-24T07:20:40Z</time>
      </trkpt>
      <trkpt lat="42.89875" lon="0.22497">
        <ele>2359</ele>
        <time>2023-08-24T07:20:49Z</time>
      </trkpt>
      <trkpt lat="42.89864" lon="0.22477">
        <ele>2356</ele>
        <time>2023-08-24T07:21:07Z</time>
      </trkpt>
      <trkpt lat="42.89856" lon="0.22471">
        <ele>2355</ele>
        <time>2023-08-24T07:21:25Z</time>
      </trkpt>
      <trkpt lat="42.89827" lon="0.22439">
        <ele>2352</ele>
        <time>2023-08-24T07:22:03Z</time>
      </trkpt>
      <trkpt lat="42.89821" lon="0.22429">
        <ele>2352</ele>
        <time>2023-08-24T07:22:12Z</time>
      </trkpt>
      <trkpt lat="42.89781" lon="0.22398">
        <ele>2353</ele>
        <time>2023-08-24T07:23:02Z</time>
      </trkpt>
      <trkpt lat="42.89761" lon="0.22373">
        <ele>2352</ele>
        <time>2023-08-24T07:23:41Z</time>
      </trkpt>
      <trkpt lat="42.89746" lon="0.22358">
        <ele>2355</ele>
        <time>2023-08-24T07:24:18Z</time>
      </trkpt>
      <trkpt lat="42.89738" lon="0.22353">
        <ele>2354</ele>
        <time>2023-08-24T07:24:33Z</time>
      </trkpt>
      <trkpt lat="42.89738" lon="0.2234">
        <ele>2348</ele>
        <time>2023-08-24T07:25:26Z</time>
      </trkpt>
      <trkpt lat="42.89731" lon="0.22332">
        <ele>2346</ele>
        <time>2023-08-24T07:25:46Z</time>
      </trkpt>
      <trkpt lat="42.89715" lon="0.223">
        <ele>2334</ele>
        <time>2023-08-24T07:26:25Z</time>
      </trkpt>
      <trkpt lat="42.89706" lon="0.22279">
        <ele>2335</ele>
        <time>2023-08-24T07:26:49Z</time>
      </trkpt>
      <trkpt lat="42.89698" lon="0.22272">
        <ele>2334</ele>
        <time>2023-08-24T07:27:02Z</time>
      </trkpt>
      <trkpt lat="42.89675" lon="0.22249">
        <ele>2331</ele>
        <time>2023-08-24T07:27:40Z</time>
      </trkpt>
      <trkpt lat="42.89659" lon="0.22236">
        <ele>2334</ele>
        <time>2023-08-24T07:28:17Z</time>
      </trkpt>
      <trkpt lat="42.89649" lon="0.22216">
        <ele>2332</ele>
        <time>2023-08-24T07:28:55Z</time>
      </trkpt>
      <trkpt lat="42.89645" lon="0.22205">
        <ele>2331</ele>
        <time>2023-08-24T07:29:12Z</time>
      </trkpt>
      <trkpt lat="42.89638" lon="0.22198">
        <ele>2333</ele>
        <time>2023-08-24T07:29:38Z</time>
      </trkpt>
      <trkpt lat="42.89634" lon="0.22187">
        <ele>2335</ele>
        <time>2023-08-24T07:30:16Z</time>
      </trkpt>
      <trkpt lat="42.89626" lon="0.22181">
        <ele>2342</ele>
        <time>2023-08-24T07:30:35Z</time>
      </trkpt>
      <trkpt lat="42.89629" lon="0.2217">
        <ele>2345</ele>
        <time>2023-08-24T07:31:19Z</time>
      </trkpt>
      <trkpt lat="42.89628" lon="0.2216">
        <ele>2351</ele>
        <time>2023-08-24T07:32:50Z</time>
      </trkpt>
      <trkpt lat="42.89627" lon="0.22148">
        <ele>2351</ele>
        <time>2023-08-24T07:33:03Z</time>
      </trkpt>
      <trkpt lat="42.89604" lon="0.22129">
        <ele>2361</ele>
        <time>2023-08-24T07:34:02Z</time>
      </trkpt>
      <trkpt lat="42.89599" lon="0.22119">
        <ele>2365</ele>
        <time>2023-08-24T07:34:47Z</time>
      </trkpt>
      <trkpt lat="42.89581" lon="0.22121">
        <ele>2375</ele>
        <time>2023-08-24T07:35:48Z</time>
      </trkpt>
      <trkpt lat="42.89572" lon="0.22118">
        <ele>2382</ele>
        <time>2023-08-24T07:36:12Z</time>
      </trkpt>
      <trkpt lat="42.89563" lon="0.22117">
        <ele>2384</ele>
        <time>2023-08-24T07:36:34Z</time>
      </trkpt>
      <trkpt lat="42.89555" lon="0.2212">
        <ele>2387</ele>
        <time>2023-08-24T07:37:03Z</time>
      </trkpt>
      <trkpt lat="42.89556" lon="0.22108">
        <ele>761</ele>
        <time>2023-08-24T07:40:21Z</time>
      </trkpt>
      <trkpt lat="42.89538" lon="0.22095">
        <ele>2397</ele>
        <time>2023-08-24T07:42:02Z</time>
      </trkpt>
      <trkpt lat="42.89534" lon="0.22106">
        <ele>2400</ele>
        <time>2023-08-24T07:42:22Z</time>
      </trkpt>
      <trkpt lat="42.89522" lon="0.22098">
        <ele>2425</ele>
        <time>2023-08-24T07:46:17Z</time>
      </trkpt>
      <trkpt lat="42.89505" lon="0.22089">
        <ele>2430</ele>
        <time>2023-08-24T07:46:42Z</time>
      </trkpt>
      <trkpt lat="42.89498" lon="0.22079">
        <ele>2429</ele>
        <time>2023-08-24T07:50:30Z</time>
      </trkpt>
      <trkpt lat="42.89491" lon="0.22071">
        <ele>2429</ele>
        <time>2023-08-24T07:50:45Z</time>
      </trkpt>
      <trkpt lat="42.89483" lon="0.22065">
        <ele>2421</ele>
        <time>2023-08-24T07:51:01Z</time>
      </trkpt>
      <trkpt lat="42.89474" lon="0.22059">
        <ele>2419</ele>
        <time>2023-08-24T07:51:13Z</time>
      </trkpt>
      <trkpt lat="42.89457" lon="0.22055">
        <ele>2412</ele>
        <time>2023-08-24T07:51:46Z</time>
      </trkpt>
      <trkpt lat="42.89448" lon="0.2205">
        <ele>2407</ele>
        <time>2023-08-24T07:51:57Z</time>
      </trkpt>
      <trkpt lat="42.89439" lon="0.22045">
        <ele>2405</ele>
        <time>2023-08-24T07:52:13Z</time>
      </trkpt>
      <trkpt lat="42.8942" lon="0.22045">
        <ele>2404</ele>
        <time>2023-08-24T07:52:35Z</time>
      </trkpt>
      <trkpt lat="42.89413" lon="0.22037">
        <ele>2406</ele>
        <time>2023-08-24T07:52:45Z</time>
      </trkpt>
      <trkpt lat="42.89403" lon="0.22037">
        <ele>2404</ele>
        <time>2023-08-24T07:53:16Z</time>
      </trkpt>
      <trkpt lat="42.89386" lon="0.22046">
        <ele>2405</ele>
        <time>2023-08-24T07:53:50Z</time>
      </trkpt>
      <trkpt lat="42.89358" lon="0.22044">
        <ele>2406</ele>
        <time>2023-08-24T07:54:36Z</time>
      </trkpt>
      <trkpt lat="42.89334" lon="0.2204">
        <ele>2410</ele>
        <time>2023-08-24T07:55:08Z</time>
      </trkpt>
      <trkpt lat="42.89312" lon="0.22034">
        <ele>2409</ele>
        <time>2023-08-24T07:55:34Z</time>
      </trkpt>
      <trkpt lat="42.89305" lon="0.22031">
        <ele>2407</ele>
        <time>2023-08-24T07:55:42Z</time>
      </trkpt>
      <trkpt lat="42.89297" lon="0.22026">
        <ele>2405</ele>
        <time>2023-08-24T07:55:53Z</time>
      </trkpt>
      <trkpt lat="42.8928" lon="0.22015">
        <ele>2402</ele>
        <time>2023-08-24T07:56:14Z</time>
      </trkpt>
      <trkpt lat="42.89261" lon="0.22011">
        <ele>2401</ele>
        <time>2023-08-24T07:56:36Z</time>
      </trkpt>
      <trkpt lat="42.89244" lon="0.22018">
        <ele>2398</ele>
        <time>2023-08-24T07:57:02Z</time>
      </trkpt>
      <trkpt lat="42.89235" lon="0.22023">
        <ele>2394</ele>
        <time>2023-08-24T07:57:12Z</time>
      </trkpt>
      <trkpt lat="42.89226" lon="0.22025">
        <ele>2392</ele>
        <time>2023-08-24T07:57:22Z</time>
      </trkpt>
      <trkpt lat="42.89199" lon="0.22016">
        <ele>2391</ele>
        <time>2023-08-24T07:57:53Z</time>
      </trkpt>
      <trkpt lat="42.89189" lon="0.22015">
        <ele>2390</ele>
        <time>2023-08-24T07:58:08Z</time>
      </trkpt>
      <trkpt lat="42.89181" lon="0.2201">
        <ele>2385</ele>
        <time>2023-08-24T07:58:26Z</time>
      </trkpt>
      <trkpt lat="42.89172" lon="0.22008">
        <ele>2381</ele>
        <time>2023-08-24T07:59:09Z</time>
      </trkpt>
      <trkpt lat="42.89153" lon="0.22005">
        <ele>2375</ele>
        <time>2023-08-24T07:59:37Z</time>
      </trkpt>
      <trkpt lat="42.89147" lon="0.21996">
        <ele>2371</ele>
        <time>2023-08-24T07:59:47Z</time>
      </trkpt>
      <trkpt lat="42.8912" lon="0.21997">
        <ele>2371</ele>
        <time>2023-08-24T08:00:36Z</time>
      </trkpt>
      <trkpt lat="42.89113" lon="0.21989">
        <ele>2372</ele>
        <time>2023-08-24T08:01:08Z</time>
      </trkpt>
      <trkpt lat="42.89099" lon="0.21991">
        <ele>2367</ele>
        <time>2023-08-24T08:01:53Z</time>
      </trkpt>
      <trkpt lat="42.89073" lon="0.21994">
        <ele>2364</ele>
        <time>2023-08-24T08:08:52Z</time>
      </trkpt>
      <trkpt lat="42.89061" lon="0.21993">
        <ele>2363</ele>
        <time>2023-08-24T08:09:07Z</time>
      </trkpt>
      <trkpt lat="42.89053" lon="0.21995">
        <ele>2362</ele>
        <time>2023-08-24T08:09:17Z</time>
      </trkpt>
      <trkpt lat="42.89046" lon="0.21995">
        <ele>2365</ele>
        <time>2023-08-24T08:09:28Z</time>
      </trkpt>
      <trkpt lat="42.8904" lon="0.21981">
        <ele>2364</ele>
        <time>2023-08-24T08:12:22Z</time>
      </trkpt>
      <trkpt lat="42.89031" lon="0.21975">
        <ele>2365</ele>
        <time>2023-08-24T08:12:46Z</time>
      </trkpt>
      <trkpt lat="42.89023" lon="0.21976">
        <ele>2377</ele>
        <time>2023-08-24T08:17:00Z</time>
      </trkpt>
      <trkpt lat="42.89007" lon="0.21979">
        <ele>2386</ele>
        <time>2023-08-24T08:18:35Z</time>
      </trkpt>
      <trkpt lat="42.88999" lon="0.21975">
        <ele>2384</ele>
        <time>2023-08-24T08:20:09Z</time>
      </trkpt>
      <trkpt lat="42.8899" lon="0.2198">
        <ele>2376</ele>
        <time>2023-08-24T08:21:34Z</time>
      </trkpt>
      <trkpt lat="42.88981" lon="0.21971">
        <ele>2376</ele>
        <time>2023-08-24T08:22:50Z</time>
      </trkpt>
      <trkpt lat="42.88974" lon="0.21979">
        <ele>2382</ele>
        <time>2023-08-24T08:24:30Z</time>
      </trkpt>
      <trkpt lat="42.88965" lon="0.21975">
        <ele>2386</ele>
        <time>2023-08-24T08:26:31Z</time>
      </trkpt>
      <trkpt lat="42.88952" lon="0.21971">
        <ele>2397</ele>
        <time>2023-08-24T08:28:49Z</time>
      </trkpt>
      <trkpt lat="42.88943" lon="0.21968">
        <ele>2398</ele>
        <time>2023-08-24T08:29:32Z</time>
      </trkpt>
      <trkpt lat="42.88934" lon="0.2197">
        <ele>2403</ele>
        <time>2023-08-24T08:32:26Z</time>
      </trkpt>
      <trkpt lat="42.88932" lon="0.21958">
        <ele>2404</ele>
        <time>2023-08-24T08:33:10Z</time>
      </trkpt>
      <trkpt lat="42.88924" lon="0.21953">
        <ele>2410</ele>
        <time>2023-08-24T08:33:46Z</time>
      </trkpt>
      <trkpt lat="42.88916" lon="0.21958">
        <ele>2410</ele>
        <time>2023-08-24T08:34:24Z</time>
      </trkpt>
      <trkpt lat="42.88915" lon="0.2197">
        <ele>2415</ele>
        <time>2023-08-24T08:35:37Z</time>
      </trkpt>
      <trkpt lat="42.88899" lon="0.21968">
        <ele>2423</ele>
        <time>2023-08-24T08:37:32Z</time>
      </trkpt>
      <trkpt lat="42.8889" lon="0.2197">
        <ele>2430</ele>
        <time>2023-08-24T08:39:39Z</time>
      </trkpt>
      <trkpt lat="42.88882" lon="0.21965">
        <ele>2432</ele>
        <time>2023-08-24T08:40:00Z</time>
      </trkpt>
      <trkpt lat="42.88873" lon="0.21968">
        <ele>2436</ele>
        <time>2023-08-24T08:43:03Z</time>
      </trkpt>
      <trkpt lat="42.88863" lon="0.21971">
        <ele>2453</ele>
        <time>2023-08-24T08:46:13Z</time>
      </trkpt>
      <trkpt lat="42.88853" lon="0.21975">
        <ele>2451</ele>
        <time>2023-08-24T08:47:06Z</time>
      </trkpt>
      <trkpt lat="42.88839" lon="0.21978">
        <ele>2448</ele>
        <time>2023-08-24T08:48:04Z</time>
      </trkpt>
      <trkpt lat="42.88827" lon="0.2198">
        <ele>2449</ele>
        <time>2023-08-24T08:48:40Z</time>
      </trkpt>
      <trkpt lat="42.88819" lon="0.21976">
        <ele>2451</ele>
        <time>2023-08-24T08:49:22Z</time>
      </trkpt>
      <trkpt lat="42.88811" lon="0.21984">
        <ele>2451</ele>
        <time>2023-08-24T08:49:55Z</time>
      </trkpt>
      <trkpt lat="42.88804" lon="0.2199">
        <ele>2454</ele>
        <time>2023-08-24T08:51:46Z</time>
      </trkpt>
      <trkpt lat="42.88801" lon="0.22002">
        <ele>2455</ele>
        <time>2023-08-24T08:52:10Z</time>
      </trkpt>
      <trkpt lat="42.88793" lon="0.22011">
        <ele>2464</ele>
        <time>2023-08-24T08:54:04Z</time>
      </trkpt>
      <trkpt lat="42.88787" lon="0.22021">
        <ele>2470</ele>
        <time>2023-08-24T08:55:42Z</time>
      </trkpt>
      <trkpt lat="42.88775" lon="0.22034">
        <ele>2474</ele>
        <time>2023-08-24T08:57:25Z</time>
      </trkpt>
      <trkpt lat="42.88767" lon="0.22057">
        <ele>2476</ele>
        <time>2023-08-24T08:58:48Z</time>
      </trkpt>
      <trkpt lat="42.8876" lon="0.22064">
        <ele>2475</ele>
        <time>2023-08-24T09:02:41Z</time>
      </trkpt>
      <trkpt lat="42.88755" lon="0.22076">
        <ele>2481</ele>
        <time>2023-08-24T09:04:00Z</time>
      </trkpt>
      <trkpt lat="42.88748" lon="0.22083">
        <ele>2485</ele>
        <time>2023-08-24T09:04:27Z</time>
      </trkpt>
      <trkpt lat="42.88742" lon="0.22092">
        <ele>2488</ele>
        <time>2023-08-24T09:05:39Z</time>
      </trkpt>
      <trkpt lat="42.88733" lon="0.22096">
        <ele>2491</ele>
        <time>2023-08-24T09:06:13Z</time>
      </trkpt>
      <trkpt lat="42.88728" lon="0.22106">
        <ele>2494</ele>
        <time>2023-08-24T09:08:22Z</time>
      </trkpt>
      <trkpt lat="42.88723" lon="0.22116">
        <ele>2493</ele>
        <time>2023-08-24T09:09:55Z</time>
      </trkpt>
      <trkpt lat="42.88717" lon="0.22125">
        <ele>2493</ele>
        <time>2023-08-24T09:10:07Z</time>
      </trkpt>
      <trkpt lat="42.88712" lon="0.22136">
        <ele>2496</ele>
        <time>2023-08-24T09:10:29Z</time>
      </trkpt>
      <trkpt lat="42.88712" lon="0.22149">
        <ele>2498</ele>
        <time>2023-08-24T09:10:56Z</time>
      </trkpt>
      <trkpt lat="42.88704" lon="0.22162">
        <ele>2505</ele>
        <time>2023-08-24T09:12:18Z</time>
      </trkpt>
      <trkpt lat="42.88699" lon="0.22186">
        <ele>2509</ele>
        <time>2023-08-24T09:12:53Z</time>
      </trkpt>
      <trkpt lat="42.88685" lon="0.22203">
        <ele>2509</ele>
        <time>2023-08-24T09:13:20Z</time>
      </trkpt>
      <trkpt lat="42.88679" lon="0.22213">
        <ele>2513</ele>
        <time>2023-08-24T09:13:39Z</time>
      </trkpt>
      <trkpt lat="42.88686" lon="0.2222">
        <ele>2515</ele>
        <time>2023-08-24T09:14:46Z</time>
      </trkpt>
      <trkpt lat="42.88691" lon="0.22231">
        <ele>2522</ele>
        <time>2023-08-24T09:16:25Z</time>
      </trkpt>
      <trkpt lat="42.8867" lon="0.22255">
        <ele>2525</ele>
        <time>2023-08-24T09:17:39Z</time>
      </trkpt>
      <trkpt lat="42.88661" lon="0.22259">
        <ele>2523</ele>
        <time>2023-08-24T09:18:24Z</time>
      </trkpt>
      <trkpt lat="42.88657" lon="0.22268">
        <ele>2527</ele>
        <time>2023-08-24T09:18:54Z</time>
      </trkpt>
      <trkpt lat="42.88649" lon="0.22274">
        <ele>2532</ele>
        <time>2023-08-24T09:20:03Z</time>
      </trkpt>
      <trkpt lat="42.88648" lon="0.22287">
        <ele>2535</ele>
        <time>2023-08-24T09:22:14Z</time>
      </trkpt>
      <trkpt lat="42.88645" lon="0.22299">
        <ele>2543</ele>
        <time>2023-08-24T09:22:40Z</time>
      </trkpt>
      <trkpt lat="42.88644" lon="0.22312">
        <ele>2545</ele>
        <time>2023-08-24T09:23:00Z</time>
      </trkpt>
      <trkpt lat="42.88638" lon="0.22321">
        <ele>2549</ele>
        <time>2023-08-24T09:24:28Z</time>
      </trkpt>
      <trkpt lat="42.88632" lon="0.22331">
        <ele>2549</ele>
        <time>2023-08-24T09:24:54Z</time>
      </trkpt>
      <trkpt lat="42.88618" lon="0.2235">
        <ele>2555</ele>
        <time>2023-08-24T09:32:32Z</time>
      </trkpt>
      <trkpt lat="42.88618" lon="0.2236">
        <ele>2558</ele>
        <time>2023-08-24T09:32:45Z</time>
      </trkpt>
      <trkpt lat="42.88611" lon="0.22368">
        <ele>2565</ele>
        <time>2023-08-24T09:33:08Z</time>
      </trkpt>
      <trkpt lat="42.8861" lon="0.2238">
        <ele>2567</ele>
        <time>2023-08-24T09:33:31Z</time>
      </trkpt>
      <trkpt lat="42.88613" lon="0.22392">
        <ele>2569</ele>
        <time>2023-08-24T09:34:10Z</time>
      </trkpt>
      <trkpt lat="42.88619" lon="0.22402">
        <ele>2569</ele>
        <time>2023-08-24T09:34:25Z</time>
      </trkpt>
      <trkpt lat="42.88619" lon="0.22398">
        <ele>2574</ele>
        <time>2023-08-24T10:24:01Z</time>
      </trkpt>
      <trkpt lat="42.88614" lon="0.22388">
        <ele>2573</ele>
        <time>2023-08-24T10:24:15Z</time>
      </trkpt>
      <trkpt lat="42.8861" lon="0.22376">
        <ele>2571</ele>
        <time>2023-08-24T10:24:40Z</time>
      </trkpt>
      <trkpt lat="42.88602" lon="0.22384">
        <ele>2568</ele>
        <time>2023-08-24T10:25:23Z</time>
      </trkpt>
      <trkpt lat="42.88593" lon="0.22385">
        <ele>2564</ele>
        <time>2023-08-24T10:26:02Z</time>
      </trkpt>
      <trkpt lat="42.88587" lon="0.22375">
        <ele>2557</ele>
        <time>2023-08-24T10:26:29Z</time>
      </trkpt>
      <trkpt lat="42.88564" lon="0.22356">
        <ele>2543</ele>
        <time>2023-08-24T10:27:57Z</time>
      </trkpt>
      <trkpt lat="42.88548" lon="0.22346">
        <ele>2532</ele>
        <time>2023-08-24T10:28:42Z</time>
      </trkpt>
      <trkpt lat="42.8854" lon="0.22341">
        <ele>2530</ele>
        <time>2023-08-24T10:28:54Z</time>
      </trkpt>
      <trkpt lat="42.8853" lon="0.2234">
        <ele>2527</ele>
        <time>2023-08-24T10:30:17Z</time>
      </trkpt>
      <trkpt lat="42.88521" lon="0.22342">
        <ele>2525</ele>
        <time>2023-08-24T10:30:33Z</time>
      </trkpt>
      <trkpt lat="42.88513" lon="0.22338">
        <ele>2522</ele>
        <time>2023-08-24T10:31:09Z</time>
      </trkpt>
      <trkpt lat="42.88505" lon="0.22344">
        <ele>2516</ele>
        <time>2023-08-24T10:31:30Z</time>
      </trkpt>
      <trkpt lat="42.88503" lon="0.22332">
        <ele>2513</ele>
        <time>2023-08-24T10:32:02Z</time>
      </trkpt>
      <trkpt lat="42.88488" lon="0.22332">
        <ele>2500</ele>
        <time>2023-08-24T10:32:49Z</time>
      </trkpt>
      <trkpt lat="42.88481" lon="0.22335">
        <ele>2495</ele>
        <time>2023-08-24T10:33:18Z</time>
      </trkpt>
      <trkpt lat="42.88472" lon="0.2234">
        <ele>2493</ele>
        <time>2023-08-24T10:33:41Z</time>
      </trkpt>
      <trkpt lat="42.8846" lon="0.22341">
        <ele>2485</ele>
        <time>2023-08-24T10:34:29Z</time>
      </trkpt>
      <trkpt lat="42.88451" lon="0.22339">
        <ele>2483</ele>
        <time>2023-08-24T10:34:54Z</time>
      </trkpt>
      <trkpt lat="42.88442" lon="0.22336">
        <ele>2476</ele>
        <time>2023-08-24T10:35:41Z</time>
      </trkpt>
      <trkpt lat="42.88434" lon="0.22331">
        <ele>2474</ele>
        <time>2023-08-24T10:35:53Z</time>
      </trkpt>
      <trkpt lat="42.88426" lon="0.22339">
        <ele>2467</ele>
        <time>2023-08-24T10:36:22Z</time>
      </trkpt>
      <trkpt lat="42.88417" lon="0.22337">
        <ele>2466</ele>
        <time>2023-08-24T10:36:32Z</time>
      </trkpt>
      <trkpt lat="42.884" lon="0.22341">
        <ele>2459</ele>
        <time>2023-08-24T10:37:11Z</time>
      </trkpt>
      <trkpt lat="42.88392" lon="0.22349">
        <ele>2455</ele>
        <time>2023-08-24T10:37:28Z</time>
      </trkpt>
      <trkpt lat="42.88383" lon="0.22354">
        <ele>2454</ele>
        <time>2023-08-24T10:37:41Z</time>
      </trkpt>
      <trkpt lat="42.88376" lon="0.2235">
        <ele>2448</ele>
        <time>2023-08-24T10:38:40Z</time>
      </trkpt>
      <trkpt lat="42.88378" lon="0.22337">
        <ele>2449</ele>
        <time>2023-08-24T10:41:09Z</time>
      </trkpt>
      <trkpt lat="42.88371" lon="0.22327">
        <ele>2443</ele>
        <time>2023-08-24T10:41:33Z</time>
      </trkpt>
      <trkpt lat="42.88366" lon="0.22317">
        <ele>2440</ele>
        <time>2023-08-24T10:42:14Z</time>
      </trkpt>
      <trkpt lat="42.88358" lon="0.22313">
        <ele>2434</ele>
        <time>2023-08-24T10:42:47Z</time>
      </trkpt>
      <trkpt lat="42.88357" lon="0.22301">
        <ele>2430</ele>
        <time>2023-08-24T10:43:29Z</time>
      </trkpt>
      <trkpt lat="42.88352" lon="0.2229">
        <ele>2420</ele>
        <time>2023-08-24T10:44:24Z</time>
      </trkpt>
      <trkpt lat="42.88351" lon="0.22278">
        <ele>2415</ele>
        <time>2023-08-24T10:45:13Z</time>
      </trkpt>
      <trkpt lat="42.88342" lon="0.22271">
        <ele>2411</ele>
        <time>2023-08-24T10:45:47Z</time>
      </trkpt>
      <trkpt lat="42.88333" lon="0.22269">
        <ele>2397</ele>
        <time>2023-08-24T10:46:20Z</time>
      </trkpt>
      <trkpt lat="42.88328" lon="0.22258">
        <ele>2394</ele>
        <time>2023-08-24T10:47:02Z</time>
      </trkpt>
      <trkpt lat="42.88323" lon="0.22245">
        <ele>2385</ele>
        <time>2023-08-24T10:47:43Z</time>
      </trkpt>
      <trkpt lat="42.88313" lon="0.22245">
        <ele>2380</ele>
        <time>2023-08-24T10:48:44Z</time>
      </trkpt>
      <trkpt lat="42.88307" lon="0.22222">
        <ele>2363</ele>
        <time>2023-08-24T10:50:25Z</time>
      </trkpt>
      <trkpt lat="42.883" lon="0.22214">
        <ele>2354</ele>
        <time>2023-08-24T10:51:11Z</time>
      </trkpt>
      <trkpt lat="42.88296" lon="0.22201">
        <ele>2353</ele>
        <time>2023-08-24T10:51:49Z</time>
      </trkpt>
      <trkpt lat="42.88287" lon="0.22202">
        <ele>2346</ele>
        <time>2023-08-24T10:52:53Z</time>
      </trkpt>
      <trkpt lat="42.88281" lon="0.22192">
        <ele>2345</ele>
        <time>2023-08-24T10:53:33Z</time>
      </trkpt>
      <trkpt lat="42.88272" lon="0.22195">
        <ele>2334</ele>
        <time>2023-08-24T10:54:38Z</time>
      </trkpt>
      <trkpt lat="42.88265" lon="0.22186">
        <ele>2333</ele>
        <time>2023-08-24T10:55:00Z</time>
      </trkpt>
      <trkpt lat="42.88265" lon="0.22172">
        <ele>2329</ele>
        <time>2023-08-24T10:55:48Z</time>
      </trkpt>
      <trkpt lat="42.88256" lon="0.22167">
        <ele>2325</ele>
        <time>2023-08-24T10:56:40Z</time>
      </trkpt>
      <trkpt lat="42.88249" lon="0.2216">
        <ele>2317</ele>
        <time>2023-08-24T10:57:23Z</time>
      </trkpt>
      <trkpt lat="42.88244" lon="0.22149">
        <ele>2316</ele>
        <time>2023-08-24T10:58:11Z</time>
      </trkpt>
      <trkpt lat="42.88243" lon="0.22136">
        <ele>2309</ele>
        <time>2023-08-24T11:00:03Z</time>
      </trkpt>
      <trkpt lat="42.88238" lon="0.22126">
        <ele>2309</ele>
        <time>2023-08-24T11:00:28Z</time>
      </trkpt>
      <trkpt lat="42.88226" lon="0.22103">
        <ele>2307</ele>
        <time>2023-08-24T11:01:35Z</time>
      </trkpt>
      <trkpt lat="42.88217" lon="0.22097">
        <ele>2304</ele>
        <time>2023-08-24T11:02:44Z</time>
      </trkpt>
      <trkpt lat="42.88209" lon="0.22092">
        <ele>2299</ele>
        <time>2023-08-24T11:03:31Z</time>
      </trkpt>
      <trkpt lat="42.88203" lon="0.22081">
        <ele>2297</ele>
        <time>2023-08-24T11:04:02Z</time>
      </trkpt>
      <trkpt lat="42.88195" lon="0.22076">
        <ele>2292</ele>
        <time>2023-08-24T11:04:36Z</time>
      </trkpt>
      <trkpt lat="42.88187" lon="0.2207">
        <ele>2291</ele>
        <time>2023-08-24T11:04:51Z</time>
      </trkpt>
      <trkpt lat="42.88183" lon="0.22057">
        <ele>2291</ele>
        <time>2023-08-24T11:05:53Z</time>
      </trkpt>
      <trkpt lat="42.88179" lon="0.22033">
        <ele>2290</ele>
        <time>2023-08-24T11:06:18Z</time>
      </trkpt>
      <trkpt lat="42.88182" lon="0.22021">
        <ele>2288</ele>
        <time>2023-08-24T11:06:30Z</time>
      </trkpt>
      <trkpt lat="42.88188" lon="0.22012">
        <ele>2285</ele>
        <time>2023-08-24T11:06:54Z</time>
      </trkpt>
      <trkpt lat="42.88191" lon="0.21987">
        <ele>2284</ele>
        <time>2023-08-24T11:07:24Z</time>
      </trkpt>
      <trkpt lat="42.88196" lon="0.21998">
        <ele>2282</ele>
        <time>2023-08-24T11:10:34Z</time>
      </trkpt>
      <trkpt lat="42.88205" lon="0.21993">
        <ele>2282</ele>
        <time>2023-08-24T11:11:21Z</time>
      </trkpt>
      <trkpt lat="42.88212" lon="0.21987">
        <ele>2281</ele>
        <time>2023-08-24T11:11:30Z</time>
      </trkpt>
      <trkpt lat="42.88238" lon="0.2195">
        <ele>2282</ele>
        <time>2023-08-24T11:12:22Z</time>
      </trkpt>
      <trkpt lat="42.8825" lon="0.21931">
        <ele>2284</ele>
        <time>2023-08-24T11:13:03Z</time>
      </trkpt>
      <trkpt lat="42.88245" lon="0.21921">
        <ele>2284</ele>
        <time>2023-08-24T11:13:15Z</time>
      </trkpt>
      <trkpt lat="42.88242" lon="0.21909">
        <ele>2283</ele>
        <time>2023-08-24T11:13:30Z</time>
      </trkpt>
      <trkpt lat="42.88258" lon="0.21893">
        <ele>2282</ele>
        <time>2023-08-24T11:14:08Z</time>
      </trkpt>
      <trkpt lat="42.8827" lon="0.21874">
        <ele>2283</ele>
        <time>2023-08-24T11:14:30Z</time>
      </trkpt>
      <trkpt lat="42.88286" lon="0.2186">
        <ele>2283</ele>
        <time>2023-08-24T11:15:13Z</time>
      </trkpt>
      <trkpt lat="42.88292" lon="0.21851">
        <ele>2281</ele>
        <time>2023-08-24T11:15:26Z</time>
      </trkpt>
      <trkpt lat="42.88306" lon="0.21833">
        <ele>2279</ele>
        <time>2023-08-24T11:15:45Z</time>
      </trkpt>
      <trkpt lat="42.88313" lon="0.21825">
        <ele>2276</ele>
        <time>2023-08-24T11:15:55Z</time>
      </trkpt>
      <trkpt lat="42.88324" lon="0.21805">
        <ele>2274</ele>
        <time>2023-08-24T11:16:30Z</time>
      </trkpt>
      <trkpt lat="42.88327" lon="0.21793">
        <ele>2275</ele>
        <time>2023-08-24T11:16:43Z</time>
      </trkpt>
      <trkpt lat="42.88337" lon="0.21773">
        <ele>2277</ele>
        <time>2023-08-24T11:17:52Z</time>
      </trkpt>
      <trkpt lat="42.88353" lon="0.21758">
        <ele>2279</ele>
        <time>2023-08-24T11:18:18Z</time>
      </trkpt>
      <trkpt lat="42.88356" lon="0.21746">
        <ele>2279</ele>
        <time>2023-08-24T11:18:27Z</time>
      </trkpt>
      <trkpt lat="42.8836" lon="0.21734">
        <ele>2281</ele>
        <time>2023-08-24T11:18:34Z</time>
      </trkpt>
      <trkpt lat="42.88362" lon="0.21709">
        <ele>2285</ele>
        <time>2023-08-24T11:18:48Z</time>
      </trkpt>
      <trkpt lat="42.88367" lon="0.21699">
        <ele>2283</ele>
        <time>2023-08-24T11:19:03Z</time>
      </trkpt>
      <trkpt lat="42.88377" lon="0.217">
        <ele>2282</ele>
        <time>2023-08-24T11:19:15Z</time>
      </trkpt>
      <trkpt lat="42.88383" lon="0.21709">
        <ele>2277</ele>
        <time>2023-08-24T11:19:26Z</time>
      </trkpt>
      <trkpt lat="42.88386" lon="0.21698">
        <ele>2276</ele>
        <time>2023-08-24T11:19:43Z</time>
      </trkpt>
      <trkpt lat="42.88394" lon="0.21689">
        <ele>2274</ele>
        <time>2023-08-24T11:20:13Z</time>
      </trkpt>
      <trkpt lat="42.88402" lon="0.21683">
        <ele>2273</ele>
        <time>2023-08-24T11:20:24Z</time>
      </trkpt>
      <trkpt lat="42.88411" lon="0.21686">
        <ele>2271</ele>
        <time>2023-08-24T11:20:40Z</time>
      </trkpt>
      <trkpt lat="42.88419" lon="0.21679">
        <ele>2268</ele>
        <time>2023-08-24T11:20:54Z</time>
      </trkpt>
      <trkpt lat="42.88428" lon="0.21677">
        <ele>2267</ele>
        <time>2023-08-24T11:21:10Z</time>
      </trkpt>
      <trkpt lat="42.88433" lon="0.21667">
        <ele>2266</ele>
        <time>2023-08-24T11:21:26Z</time>
      </trkpt>
      <trkpt lat="42.8844" lon="0.21658">
        <ele>2264</ele>
        <time>2023-08-24T11:21:35Z</time>
      </trkpt>
      <trkpt lat="42.88453" lon="0.21639">
        <ele>2259</ele>
        <time>2023-08-24T11:22:18Z</time>
      </trkpt>
      <trkpt lat="42.88462" lon="0.21617">
        <ele>2255</ele>
        <time>2023-08-24T11:22:39Z</time>
      </trkpt>
      <trkpt lat="42.88469" lon="0.21608">
        <ele>2253</ele>
        <time>2023-08-24T11:22:50Z</time>
      </trkpt>
      <trkpt lat="42.8847" lon="0.21595">
        <ele>2253</ele>
        <time>2023-08-24T11:23:00Z</time>
      </trkpt>
      <trkpt lat="42.88476" lon="0.21585">
        <ele>2250</ele>
        <time>2023-08-24T11:23:12Z</time>
      </trkpt>
      <trkpt lat="42.88481" lon="0.21574">
        <ele>2250</ele>
        <time>2023-08-24T11:23:34Z</time>
      </trkpt>
      <trkpt lat="42.88483" lon="0.21561">
        <ele>2249</ele>
        <time>2023-08-24T11:23:51Z</time>
      </trkpt>
      <trkpt lat="42.88484" lon="0.21548">
        <ele>2247</ele>
        <time>2023-08-24T11:24:05Z</time>
      </trkpt>
      <trkpt lat="42.88489" lon="0.21537">
        <ele>2241</ele>
        <time>2023-08-24T11:24:30Z</time>
      </trkpt>
      <trkpt lat="42.88498" lon="0.21537">
        <ele>2239</ele>
        <time>2023-08-24T11:25:24Z</time>
      </trkpt>
      <trkpt lat="42.88507" lon="0.21537">
        <ele>2237</ele>
        <time>2023-08-24T11:25:41Z</time>
      </trkpt>
      <trkpt lat="42.88523" lon="0.21526">
        <ele>2234</ele>
        <time>2023-08-24T11:26:16Z</time>
      </trkpt>
      <trkpt lat="42.88525" lon="0.21514">
        <ele>2235</ele>
        <time>2023-08-24T11:26:35Z</time>
      </trkpt>
      <trkpt lat="42.88526" lon="0.21501">
        <ele>2230</ele>
        <time>2023-08-24T11:26:59Z</time>
      </trkpt>
      <trkpt lat="42.88534" lon="0.21497">
        <ele>2229</ele>
        <time>2023-08-24T11:27:25Z</time>
      </trkpt>
      <trkpt lat="42.88541" lon="0.21489">
        <ele>2229</ele>
        <time>2023-08-24T11:27:34Z</time>
      </trkpt>
      <trkpt lat="42.88551" lon="0.21468">
        <ele>2230</ele>
        <time>2023-08-24T11:27:57Z</time>
      </trkpt>
      <trkpt lat="42.88549" lon="0.21455">
        <ele>2232</ele>
        <time>2023-08-24T11:28:09Z</time>
      </trkpt>
      <trkpt lat="42.88549" lon="0.21443">
        <ele>2236</ele>
        <time>2023-08-24T11:28:23Z</time>
      </trkpt>
      <trkpt lat="42.88545" lon="0.21432">
        <ele>2236</ele>
        <time>2023-08-24T11:28:35Z</time>
      </trkpt>
      <trkpt lat="42.88554" lon="0.21382">
        <ele>2235</ele>
        <time>2023-08-24T11:29:20Z</time>
      </trkpt>
      <trkpt lat="42.88558" lon="0.21371">
        <ele>2234</ele>
        <time>2023-08-24T11:29:32Z</time>
      </trkpt>
      <trkpt lat="42.88563" lon="0.21361">
        <ele>2230</ele>
        <time>2023-08-24T11:30:06Z</time>
      </trkpt>
      <trkpt lat="42.88565" lon="0.21349">
        <ele>2228</ele>
        <time>2023-08-24T11:30:24Z</time>
      </trkpt>
      <trkpt lat="42.88574" lon="0.21344">
        <ele>2226</ele>
        <time>2023-08-24T11:30:36Z</time>
      </trkpt>
      <trkpt lat="42.88578" lon="0.21333">
        <ele>2225</ele>
        <time>2023-08-24T11:30:56Z</time>
      </trkpt>
      <trkpt lat="42.88586" lon="0.21326">
        <ele>2223</ele>
        <time>2023-08-24T11:31:30Z</time>
      </trkpt>
      <trkpt lat="42.88591" lon="0.21314">
        <ele>2222</ele>
        <time>2023-08-24T11:31:51Z</time>
      </trkpt>
      <trkpt lat="42.88601" lon="0.21293">
        <ele>2214</ele>
        <time>2023-08-24T11:32:43Z</time>
      </trkpt>
      <trkpt lat="42.88599" lon="0.21281">
        <ele>2211</ele>
        <time>2023-08-24T11:33:06Z</time>
      </trkpt>
      <trkpt lat="42.88594" lon="0.21271">
        <ele>2209</ele>
        <time>2023-08-24T11:33:50Z</time>
      </trkpt>
      <trkpt lat="42.88596" lon="0.21259">
        <ele>2203</ele>
        <time>2023-08-24T11:34:22Z</time>
      </trkpt>
      <trkpt lat="42.886" lon="0.21247">
        <ele>2202</ele>
        <time>2023-08-24T11:34:50Z</time>
      </trkpt>
      <trkpt lat="42.886" lon="0.21233">
        <ele>2194</ele>
        <time>2023-08-24T11:35:44Z</time>
      </trkpt>
      <trkpt lat="42.88598" lon="0.2122">
        <ele>2193</ele>
        <time>2023-08-24T11:36:07Z</time>
      </trkpt>
      <trkpt lat="42.886" lon="0.21208">
        <ele>2190</ele>
        <time>2023-08-24T11:36:35Z</time>
      </trkpt>
      <trkpt lat="42.88602" lon="0.21183">
        <ele>2188</ele>
        <time>2023-08-24T11:37:09Z</time>
      </trkpt>
      <trkpt lat="42.88605" lon="0.21171">
        <ele>2187</ele>
        <time>2023-08-24T11:37:24Z</time>
      </trkpt>
      <trkpt lat="42.88621" lon="0.21157">
        <ele>2185</ele>
        <time>2023-08-24T11:38:05Z</time>
      </trkpt>
      <trkpt lat="42.88628" lon="0.2115">
        <ele>2185</ele>
        <time>2023-08-24T11:38:18Z</time>
      </trkpt>
      <trkpt lat="42.88634" lon="0.21139">
        <ele>2185</ele>
        <time>2023-08-24T11:38:38Z</time>
      </trkpt>
      <trkpt lat="42.88638" lon="0.21127">
        <ele>2185</ele>
        <time>2023-08-24T11:38:51Z</time>
      </trkpt>
      <trkpt lat="42.88634" lon="0.21116">
        <ele>2185</ele>
        <time>2023-08-24T11:39:16Z</time>
      </trkpt>
      <trkpt lat="42.88643" lon="0.21093">
        <ele>2187</ele>
        <time>2023-08-24T11:39:47Z</time>
      </trkpt>
      <trkpt lat="42.8863" lon="0.21084">
        <ele>2185</ele>
        <time>2023-08-24T11:43:00Z</time>
      </trkpt>
      <trkpt lat="42.88612" lon="0.2109">
        <ele>2187</ele>
        <time>2023-08-24T11:43:33Z</time>
      </trkpt>
      <trkpt lat="42.88609" lon="0.21079">
        <ele>2188</ele>
        <time>2023-08-24T11:43:49Z</time>
      </trkpt>
      <trkpt lat="42.88609" lon="0.21065">
        <ele>2190</ele>
        <time>2023-08-24T11:44:05Z</time>
      </trkpt>
      <trkpt lat="42.88612" lon="0.21054">
        <ele>2190</ele>
        <time>2023-08-24T11:44:20Z</time>
      </trkpt>
      <trkpt lat="42.8861" lon="0.21041">
        <ele>2190</ele>
        <time>2023-08-24T11:44:38Z</time>
      </trkpt>
      <trkpt lat="42.88605" lon="0.21029">
        <ele>2187</ele>
        <time>2023-08-24T11:44:55Z</time>
      </trkpt>
      <trkpt lat="42.88598" lon="0.21023">
        <ele>2185</ele>
        <time>2023-08-24T11:45:07Z</time>
      </trkpt>
      <trkpt lat="42.88588" lon="0.21001">
        <ele>2184</ele>
        <time>2023-08-24T11:45:44Z</time>
      </trkpt>
      <trkpt lat="42.88582" lon="0.20991">
        <ele>2182</ele>
        <time>2023-08-24T11:45:55Z</time>
      </trkpt>
      <trkpt lat="42.88565" lon="0.20982">
        <ele>2179</ele>
        <time>2023-08-24T11:46:21Z</time>
      </trkpt>
      <trkpt lat="42.88558" lon="0.20973">
        <ele>2181</ele>
        <time>2023-08-24T11:46:35Z</time>
      </trkpt>
      <trkpt lat="42.88558" lon="0.2096">
        <ele>2182</ele>
        <time>2023-08-24T11:46:49Z</time>
      </trkpt>
      <trkpt lat="42.88553" lon="0.2095">
        <ele>2182</ele>
        <time>2023-08-24T11:47:06Z</time>
      </trkpt>
      <trkpt lat="42.88552" lon="0.20937">
        <ele>2182</ele>
        <time>2023-08-24T11:47:25Z</time>
      </trkpt>
      <trkpt lat="42.88545" lon="0.20928">
        <ele>2176</ele>
        <time>2023-08-24T11:47:45Z</time>
      </trkpt>
      <trkpt lat="42.88541" lon="0.20904">
        <ele>2177</ele>
        <time>2023-08-24T11:48:12Z</time>
      </trkpt>
      <trkpt lat="42.88536" lon="0.20892">
        <ele>2175</ele>
        <time>2023-08-24T11:48:23Z</time>
      </trkpt>
      <trkpt lat="42.88532" lon="0.20881">
        <ele>2173</ele>
        <time>2023-08-24T11:48:36Z</time>
      </trkpt>
      <trkpt lat="42.88534" lon="0.20868">
        <ele>2172</ele>
        <time>2023-08-24T11:48:54Z</time>
      </trkpt>
      <trkpt lat="42.88524" lon="0.20846">
        <ele>2166</ele>
        <time>2023-08-24T11:49:35Z</time>
      </trkpt>
      <trkpt lat="42.88523" lon="0.20834">
        <ele>2164</ele>
        <time>2023-08-24T11:50:38Z</time>
      </trkpt>
      <trkpt lat="42.88522" lon="0.20821">
        <ele>2163</ele>
        <time>2023-08-24T11:52:19Z</time>
      </trkpt>
      <trkpt lat="42.88521" lon="0.20809">
        <ele>2158</ele>
        <time>2023-08-24T11:52:35Z</time>
      </trkpt>
      <trkpt lat="42.88513" lon="0.20787">
        <ele>2148</ele>
        <time>2023-08-24T11:53:21Z</time>
      </trkpt>
      <trkpt lat="42.88512" lon="0.20775">
        <ele>2146</ele>
        <time>2023-08-24T11:53:56Z</time>
      </trkpt>
      <trkpt lat="42.88506" lon="0.2077">
        <ele>2140</ele>
        <time>2023-08-24T11:54:19Z</time>
      </trkpt>
      <trkpt lat="42.88502" lon="0.20753">
        <ele>2136</ele>
        <time>2023-08-24T11:54:45Z</time>
      </trkpt>
      <trkpt lat="42.88513" lon="0.20733">
        <ele>2136</ele>
        <time>2023-08-24T11:55:18Z</time>
      </trkpt>
      <trkpt lat="42.88518" lon="0.20723">
        <ele>2136</ele>
        <time>2023-08-24T11:55:29Z</time>
      </trkpt>
      <trkpt lat="42.88535" lon="0.20713">
        <ele>2133</ele>
        <time>2023-08-24T11:55:58Z</time>
      </trkpt>
      <trkpt lat="42.88537" lon="0.20701">
        <ele>2131</ele>
        <time>2023-08-24T12:02:00Z</time>
      </trkpt>
      <trkpt lat="42.88536" lon="0.20688">
        <ele>2131</ele>
        <time>2023-08-24T12:02:12Z</time>
      </trkpt>
      <trkpt lat="42.88543" lon="0.20676">
        <ele>2128</ele>
        <time>2023-08-24T12:02:47Z</time>
      </trkpt>
      <trkpt lat="42.8855" lon="0.20668">
        <ele>2127</ele>
        <time>2023-08-24T12:02:56Z</time>
      </trkpt>
      <trkpt lat="42.88555" lon="0.20662">
        <ele>2130</ele>
        <time>2023-08-24T12:03:04Z</time>
      </trkpt>
      <trkpt lat="42.88562" lon="0.20657">
        <ele>2132</ele>
        <time>2023-08-24T12:03:13Z</time>
      </trkpt>
      <trkpt lat="42.88578" lon="0.20652">
        <ele>2132</ele>
        <time>2023-08-24T12:03:31Z</time>
      </trkpt>
      <trkpt lat="42.88584" lon="0.20641">
        <ele>2132</ele>
        <time>2023-08-24T12:03:45Z</time>
      </trkpt>
      <trkpt lat="42.88594" lon="0.20639">
        <ele>2129</ele>
        <time>2023-08-24T12:03:59Z</time>
      </trkpt>
      <trkpt lat="42.88601" lon="0.20631">
        <ele>2128</ele>
        <time>2023-08-24T12:04:13Z</time>
      </trkpt>
      <trkpt lat="42.88611" lon="0.20632">
        <ele>2128</ele>
        <time>2023-08-24T12:04:26Z</time>
      </trkpt>
      <trkpt lat="42.88619" lon="0.20624">
        <ele>2129</ele>
        <time>2023-08-24T12:04:42Z</time>
      </trkpt>
      <trkpt lat="42.88626" lon="0.20615">
        <ele>2133</ele>
        <time>2023-08-24T12:05:03Z</time>
      </trkpt>
      <trkpt lat="42.88629" lon="0.20602">
        <ele>2132</ele>
        <time>2023-08-24T12:05:18Z</time>
      </trkpt>
      <trkpt lat="42.88636" lon="0.20593">
        <ele>2128</ele>
        <time>2023-08-24T12:05:31Z</time>
      </trkpt>
      <trkpt lat="42.88644" lon="0.20585">
        <ele>2126</ele>
        <time>2023-08-24T12:05:44Z</time>
      </trkpt>
      <trkpt lat="42.88648" lon="0.20573">
        <ele>2122</ele>
        <time>2023-08-24T12:05:53Z</time>
      </trkpt>
      <trkpt lat="42.88656" lon="0.20564">
        <ele>2123</ele>
        <time>2023-08-24T12:06:32Z</time>
      </trkpt>
      <trkpt lat="42.88662" lon="0.20555">
        <ele>2125</ele>
        <time>2023-08-24T12:06:44Z</time>
      </trkpt>
      <trkpt lat="42.88667" lon="0.20543">
        <ele>2124</ele>
        <time>2023-08-24T12:07:00Z</time>
      </trkpt>
      <trkpt lat="42.88687" lon="0.20543">
        <ele>2122</ele>
        <time>2023-08-24T12:07:32Z</time>
      </trkpt>
      <trkpt lat="42.88696" lon="0.20539">
        <ele>2124</ele>
        <time>2023-08-24T12:07:43Z</time>
      </trkpt>
      <trkpt lat="42.88705" lon="0.20538">
        <ele>2126</ele>
        <time>2023-08-24T12:07:57Z</time>
      </trkpt>
      <trkpt lat="42.88714" lon="0.20534">
        <ele>2131</ele>
        <time>2023-08-24T12:08:31Z</time>
      </trkpt>
      <trkpt lat="42.88724" lon="0.20534">
        <ele>2132</ele>
        <time>2023-08-24T12:09:08Z</time>
      </trkpt>
      <trkpt lat="42.88732" lon="0.20539">
        <ele>2133</ele>
        <time>2023-08-24T12:09:20Z</time>
      </trkpt>
      <trkpt lat="42.88749" lon="0.2053">
        <ele>2137</ele>
        <time>2023-08-24T12:09:49Z</time>
      </trkpt>
      <trkpt lat="42.88753" lon="0.20516">
        <ele>2138</ele>
        <time>2023-08-24T12:10:06Z</time>
      </trkpt>
      <trkpt lat="42.88762" lon="0.20521">
        <ele>2139</ele>
        <time>2023-08-24T12:11:32Z</time>
      </trkpt>
      <trkpt lat="42.8877" lon="0.20516">
        <ele>2139</ele>
        <time>2023-08-24T12:14:04Z</time>
      </trkpt>
      <trkpt lat="42.8878" lon="0.20518">
        <ele>2138</ele>
        <time>2023-08-24T12:14:21Z</time>
      </trkpt>
      <trkpt lat="42.88789" lon="0.20523">
        <ele>2135</ele>
        <time>2023-08-24T12:14:32Z</time>
      </trkpt>
      <trkpt lat="42.88798" lon="0.20524">
        <ele>2136</ele>
        <time>2023-08-24T12:14:42Z</time>
      </trkpt>
      <trkpt lat="42.88807" lon="0.20519">
        <ele>2135</ele>
        <time>2023-08-24T12:14:54Z</time>
      </trkpt>
      <trkpt lat="42.88826" lon="0.20519">
        <ele>2131</ele>
        <time>2023-08-24T12:15:18Z</time>
      </trkpt>
      <trkpt lat="42.88832" lon="0.20509">
        <ele>2133</ele>
        <time>2023-08-24T12:15:32Z</time>
      </trkpt>
      <trkpt lat="42.88841" lon="0.20514">
        <ele>2137</ele>
        <time>2023-08-24T12:15:49Z</time>
      </trkpt>
      <trkpt lat="42.88867" lon="0.20495">
        <ele>2135</ele>
        <time>2023-08-24T12:16:34Z</time>
      </trkpt>
      <trkpt lat="42.88874" lon="0.20485">
        <ele>2128</ele>
        <time>2023-08-24T12:16:45Z</time>
      </trkpt>
      <trkpt lat="42.88882" lon="0.20478">
        <ele>2129</ele>
        <time>2023-08-24T12:16:57Z</time>
      </trkpt>
      <trkpt lat="42.88891" lon="0.20474">
        <ele>2129</ele>
        <time>2023-08-24T12:17:09Z</time>
      </trkpt>
      <trkpt lat="42.88897" lon="0.20464">
        <ele>2131</ele>
        <time>2023-08-24T12:23:55Z</time>
      </trkpt>
      <trkpt lat="42.88896" lon="0.20451">
        <ele>2132</ele>
        <time>2023-08-24T12:24:36Z</time>
      </trkpt>
      <trkpt lat="42.88901" lon="0.20441">
        <ele>2132</ele>
        <time>2023-08-24T12:24:50Z</time>
      </trkpt>
      <trkpt lat="42.88904" lon="0.20429">
        <ele>2133</ele>
        <time>2023-08-24T12:25:04Z</time>
      </trkpt>
      <trkpt lat="42.88911" lon="0.2042">
        <ele>2132</ele>
        <time>2023-08-24T12:25:15Z</time>
      </trkpt>
      <trkpt lat="42.88917" lon="0.20411">
        <ele>2130</ele>
        <time>2023-08-24T12:25:29Z</time>
      </trkpt>
      <trkpt lat="42.88917" lon="0.20398">
        <ele>2131</ele>
        <time>2023-08-24T12:25:42Z</time>
      </trkpt>
      <trkpt lat="42.88919" lon="0.20386">
        <ele>2131</ele>
        <time>2023-08-24T12:25:54Z</time>
      </trkpt>
      <trkpt lat="42.88926" lon="0.20378">
        <ele>2130</ele>
        <time>2023-08-24T12:26:05Z</time>
      </trkpt>
      <trkpt lat="42.88926" lon="0.20365">
        <ele>2129</ele>
        <time>2023-08-24T12:26:14Z</time>
      </trkpt>
      <trkpt lat="42.88927" lon="0.20352">
        <ele>2127</ele>
        <time>2023-08-24T12:26:26Z</time>
      </trkpt>
      <trkpt lat="42.88936" lon="0.20328">
        <ele>2126</ele>
        <time>2023-08-24T12:26:47Z</time>
      </trkpt>
      <trkpt lat="42.88932" lon="0.20316">
        <ele>2128</ele>
        <time>2023-08-24T12:26:58Z</time>
      </trkpt>
      <trkpt lat="42.88926" lon="0.20306">
        <ele>2129</ele>
        <time>2023-08-24T12:27:09Z</time>
      </trkpt>
      <trkpt lat="42.88925" lon="0.20281">
        <ele>2132</ele>
        <time>2023-08-24T12:27:39Z</time>
      </trkpt>
      <trkpt lat="42.88927" lon="0.20269">
        <ele>2132</ele>
        <time>2023-08-24T12:27:50Z</time>
      </trkpt>
      <trkpt lat="42.88934" lon="0.20261">
        <ele>2133</ele>
        <time>2023-08-24T12:28:14Z</time>
      </trkpt>
      <trkpt lat="42.88937" lon="0.20249">
        <ele>2135</ele>
        <time>2023-08-24T12:28:25Z</time>
      </trkpt>
      <trkpt lat="42.88946" lon="0.20246">
        <ele>2135</ele>
        <time>2023-08-24T12:28:36Z</time>
      </trkpt>
      <trkpt lat="42.88956" lon="0.20241">
        <ele>2133</ele>
        <time>2023-08-24T12:28:48Z</time>
      </trkpt>
      <trkpt lat="42.88963" lon="0.20234">
        <ele>2133</ele>
        <time>2023-08-24T12:28:57Z</time>
      </trkpt>
      <trkpt lat="42.88969" lon="0.20224">
        <ele>2134</ele>
        <time>2023-08-24T12:29:08Z</time>
      </trkpt>
      <trkpt lat="42.88969" lon="0.20211">
        <ele>2134</ele>
        <time>2023-08-24T12:29:20Z</time>
      </trkpt>
      <trkpt lat="42.88969" lon="0.20198">
        <ele>2132</ele>
        <time>2023-08-24T12:29:34Z</time>
      </trkpt>
      <trkpt lat="42.88978" lon="0.20192">
        <ele>2129</ele>
        <time>2023-08-24T12:29:58Z</time>
      </trkpt>
      <trkpt lat="42.88987" lon="0.20193">
        <ele>2125</ele>
        <time>2023-08-24T12:30:09Z</time>
      </trkpt>
      <trkpt lat="42.88996" lon="0.2019">
        <ele>2125</ele>
        <time>2023-08-24T12:30:24Z</time>
      </trkpt>
      <trkpt lat="42.89008" lon="0.20167">
        <ele>2124</ele>
        <time>2023-08-24T12:31:29Z</time>
      </trkpt>
      <trkpt lat="42.89019" lon="0.20146">
        <ele>2124</ele>
        <time>2023-08-24T12:32:07Z</time>
      </trkpt>
      <trkpt lat="42.89028" lon="0.2014">
        <ele>2128</ele>
        <time>2023-08-24T12:32:28Z</time>
      </trkpt>
      <trkpt lat="42.89042" lon="0.20122">
        <ele>2127</ele>
        <time>2023-08-24T12:32:58Z</time>
      </trkpt>
      <trkpt lat="42.89049" lon="0.20114">
        <ele>2128</ele>
        <time>2023-08-24T12:33:14Z</time>
      </trkpt>
      <trkpt lat="42.8906" lon="0.20077">
        <ele>2128</ele>
        <time>2023-08-24T12:33:46Z</time>
      </trkpt>
      <trkpt lat="42.8907" lon="0.20076">
        <ele>2129</ele>
        <time>2023-08-24T12:34:04Z</time>
      </trkpt>
      <trkpt lat="42.89079" lon="0.20073">
        <ele>2131</ele>
        <time>2023-08-24T12:34:21Z</time>
      </trkpt>
      <trkpt lat="42.89082" lon="0.20061">
        <ele>2133</ele>
        <time>2023-08-24T12:34:39Z</time>
      </trkpt>
      <trkpt lat="42.89083" lon="0.20048">
        <ele>2132</ele>
        <time>2023-08-24T12:36:57Z</time>
      </trkpt>
      <trkpt lat="42.89092" lon="0.20042">
        <ele>2131</ele>
        <time>2023-08-24T12:37:11Z</time>
      </trkpt>
      <trkpt lat="42.89094" lon="0.2003">
        <ele>2133</ele>
        <time>2023-08-24T12:37:24Z</time>
      </trkpt>
      <trkpt lat="42.89101" lon="0.20022">
        <ele>2133</ele>
        <time>2023-08-24T12:37:39Z</time>
      </trkpt>
      <trkpt lat="42.89111" lon="0.20018">
        <ele>2131</ele>
        <time>2023-08-24T12:37:53Z</time>
      </trkpt>
      <trkpt lat="42.89119" lon="0.20013">
        <ele>2129</ele>
        <time>2023-08-24T12:38:05Z</time>
      </trkpt>
      <trkpt lat="42.89131" lon="0.19992">
        <ele>2131</ele>
        <time>2023-08-24T12:38:21Z</time>
      </trkpt>
      <trkpt lat="42.89138" lon="0.19987">
        <ele>2132</ele>
        <time>2023-08-24T12:38:31Z</time>
      </trkpt>
      <trkpt lat="42.89146" lon="0.19978">
        <ele>2135</ele>
        <time>2023-08-24T12:38:51Z</time>
      </trkpt>
      <trkpt lat="42.89149" lon="0.19972">
        <ele>2135</ele>
        <time>2023-08-24T12:41:37Z</time>
      </trkpt>
      <trkpt lat="42.89166" lon="0.19962">
        <ele>2134</ele>
        <time>2023-08-24T12:42:05Z</time>
      </trkpt>
      <trkpt lat="42.89164" lon="0.19949">
        <ele>2132</ele>
        <time>2023-08-24T12:42:18Z</time>
      </trkpt>
      <trkpt lat="42.89167" lon="0.19937">
        <ele>2132</ele>
        <time>2023-08-24T12:42:30Z</time>
      </trkpt>
      <trkpt lat="42.89173" lon="0.19927">
        <ele>2130</ele>
        <time>2023-08-24T12:42:49Z</time>
      </trkpt>
      <trkpt lat="42.89178" lon="0.19916">
        <ele>2127</ele>
        <time>2023-08-24T12:43:20Z</time>
      </trkpt>
      <trkpt lat="42.89187" lon="0.1992">
        <ele>2118</ele>
        <time>2023-08-24T12:43:34Z</time>
      </trkpt>
      <trkpt lat="42.89194" lon="0.1991">
        <ele>2117</ele>
        <time>2023-08-24T12:43:52Z</time>
      </trkpt>
      <trkpt lat="42.89202" lon="0.19916">
        <ele>2115</ele>
        <time>2023-08-24T12:44:40Z</time>
      </trkpt>
      <trkpt lat="42.89205" lon="0.19904">
        <ele>2113</ele>
        <time>2023-08-24T12:45:02Z</time>
      </trkpt>
      <trkpt lat="42.89214" lon="0.19901">
        <ele>2110</ele>
        <time>2023-08-24T12:45:13Z</time>
      </trkpt>
      <trkpt lat="42.89218" lon="0.19876">
        <ele>2107</ele>
        <time>2023-08-24T12:45:34Z</time>
      </trkpt>
      <trkpt lat="42.89222" lon="0.19864">
        <ele>2104</ele>
        <time>2023-08-24T12:45:44Z</time>
      </trkpt>
      <trkpt lat="42.89224" lon="0.19852">
        <ele>2103</ele>
        <time>2023-08-24T12:45:53Z</time>
      </trkpt>
      <trkpt lat="42.8923" lon="0.19843">
        <ele>2100</ele>
        <time>2023-08-24T12:46:09Z</time>
      </trkpt>
      <trkpt lat="42.89239" lon="0.19839">
        <ele>2097</ele>
        <time>2023-08-24T12:46:21Z</time>
      </trkpt>
      <trkpt lat="42.89241" lon="0.19826">
        <ele>2092</ele>
        <time>2023-08-24T12:46:32Z</time>
      </trkpt>
      <trkpt lat="42.89247" lon="0.19817">
        <ele>2093</ele>
        <time>2023-08-24T12:46:40Z</time>
      </trkpt>
      <trkpt lat="42.89255" lon="0.19794">
        <ele>2095</ele>
        <time>2023-08-24T12:46:56Z</time>
      </trkpt>
      <trkpt lat="42.89262" lon="0.19787">
        <ele>2093</ele>
        <time>2023-08-24T12:47:06Z</time>
      </trkpt>
      <trkpt lat="42.89271" lon="0.19783">
        <ele>2092</ele>
        <time>2023-08-24T12:47:18Z</time>
      </trkpt>
      <trkpt lat="42.89279" lon="0.19774">
        <ele>2091</ele>
        <time>2023-08-24T12:47:30Z</time>
      </trkpt>
      <trkpt lat="42.89282" lon="0.19762">
        <ele>2091</ele>
        <time>2023-08-24T12:47:40Z</time>
      </trkpt>
      <trkpt lat="42.89289" lon="0.19754">
        <ele>2091</ele>
        <time>2023-08-24T12:48:10Z</time>
      </trkpt>
      <trkpt lat="42.89296" lon="0.19743">
        <ele>2090</ele>
        <time>2023-08-24T12:48:20Z</time>
      </trkpt>
      <trkpt lat="42.89305" lon="0.19736">
        <ele>2088</ele>
        <time>2023-08-24T12:48:33Z</time>
      </trkpt>
      <trkpt lat="42.89312" lon="0.19745">
        <ele>2087</ele>
        <time>2023-08-24T12:48:47Z</time>
      </trkpt>
      <trkpt lat="42.89321" lon="0.19749">
        <ele>2084</ele>
        <time>2023-08-24T12:49:02Z</time>
      </trkpt>
      <trkpt lat="42.89331" lon="0.19749">
        <ele>2081</ele>
        <time>2023-08-24T12:49:20Z</time>
      </trkpt>
      <trkpt lat="42.89334" lon="0.19737">
        <ele>2075</ele>
        <time>2023-08-24T12:49:30Z</time>
      </trkpt>
      <trkpt lat="42.89341" lon="0.19744">
        <ele>2074</ele>
        <time>2023-08-24T12:49:42Z</time>
      </trkpt>
      <trkpt lat="42.89351" lon="0.19743">
        <ele>2071</ele>
        <time>2023-08-24T12:50:03Z</time>
      </trkpt>
      <trkpt lat="42.8936" lon="0.19738">
        <ele>2066</ele>
        <time>2023-08-24T12:50:23Z</time>
      </trkpt>
      <trkpt lat="42.8937" lon="0.19735">
        <ele>2066</ele>
        <time>2023-08-24T12:50:34Z</time>
      </trkpt>
      <trkpt lat="42.89378" lon="0.19726">
        <ele>2063</ele>
        <time>2023-08-24T12:50:48Z</time>
      </trkpt>
      <trkpt lat="42.89397" lon="0.19721">
        <ele>2063</ele>
        <time>2023-08-24T12:51:23Z</time>
      </trkpt>
      <trkpt lat="42.89413" lon="0.19706">
        <ele>2064</ele>
        <time>2023-08-24T12:51:47Z</time>
      </trkpt>
      <trkpt lat="42.89419" lon="0.19716">
        <ele>2064</ele>
        <time>2023-08-24T12:52:04Z</time>
      </trkpt>
      <trkpt lat="42.89423" lon="0.19727">
        <ele>2055</ele>
        <time>2023-08-24T12:52:20Z</time>
      </trkpt>
      <trkpt lat="42.89433" lon="0.19728">
        <ele>2053</ele>
        <time>2023-08-24T12:52:37Z</time>
      </trkpt>
      <trkpt lat="42.89446" lon="0.19747">
        <ele>2052</ele>
        <time>2023-08-24T12:53:02Z</time>
      </trkpt>
      <trkpt lat="42.89455" lon="0.1977">
        <ele>2050</ele>
        <time>2023-08-24T12:53:29Z</time>
      </trkpt>
      <trkpt lat="42.89474" lon="0.19779">
        <ele>2050</ele>
        <time>2023-08-24T12:53:51Z</time>
      </trkpt>
      <trkpt lat="42.89481" lon="0.19787">
        <ele>2052</ele>
        <time>2023-08-24T12:54:02Z</time>
      </trkpt>
      <trkpt lat="42.89484" lon="0.19799">
        <ele>2052</ele>
        <time>2023-08-24T12:54:14Z</time>
      </trkpt>
      <trkpt lat="42.89488" lon="0.1981">
        <ele>2049</ele>
        <time>2023-08-24T12:54:26Z</time>
      </trkpt>
      <trkpt lat="42.89497" lon="0.19817">
        <ele>2049</ele>
        <time>2023-08-24T12:55:49Z</time>
      </trkpt>
      <trkpt lat="42.89504" lon="0.19825">
        <ele>2049</ele>
        <time>2023-08-24T12:56:01Z</time>
      </trkpt>
      <trkpt lat="42.89513" lon="0.19831">
        <ele>2048</ele>
        <time>2023-08-24T12:56:26Z</time>
      </trkpt>
      <trkpt lat="42.89523" lon="0.19833">
        <ele>2051</ele>
        <time>2023-08-24T12:56:40Z</time>
      </trkpt>
      <trkpt lat="42.89532" lon="0.19838">
        <ele>2054</ele>
        <time>2023-08-24T12:57:04Z</time>
      </trkpt>
      <trkpt lat="42.89542" lon="0.19837">
        <ele>2057</ele>
        <time>2023-08-24T12:57:35Z</time>
      </trkpt>
      <trkpt lat="42.89552" lon="0.19837">
        <ele>2057</ele>
        <time>2023-08-24T12:57:54Z</time>
      </trkpt>
      <trkpt lat="42.8956" lon="0.19844">
        <ele>2057</ele>
        <time>2023-08-24T12:58:21Z</time>
      </trkpt>
      <trkpt lat="42.89576" lon="0.19856">
        <ele>2054</ele>
        <time>2023-08-24T12:58:47Z</time>
      </trkpt>
      <trkpt lat="42.89586" lon="0.19855">
        <ele>2054</ele>
        <time>2023-08-24T12:58:59Z</time>
      </trkpt>
      <trkpt lat="42.8961" lon="0.19875">
        <ele>2051</ele>
        <time>2023-08-24T12:59:40Z</time>
      </trkpt>
      <trkpt lat="42.89618" lon="0.19882">
        <ele>2051</ele>
        <time>2023-08-24T12:59:53Z</time>
      </trkpt>
      <trkpt lat="42.89626" lon="0.19891">
        <ele>2047</ele>
        <time>2023-08-24T13:00:06Z</time>
      </trkpt>
      <trkpt lat="42.89627" lon="0.19904">
        <ele>2048</ele>
        <time>2023-08-24T13:00:22Z</time>
      </trkpt>
      <trkpt lat="42.89629" lon="0.19917">
        <ele>2050</ele>
        <time>2023-08-24T13:00:55Z</time>
      </trkpt>
      <trkpt lat="42.89648" lon="0.19947">
        <ele>2053</ele>
        <time>2023-08-24T13:01:30Z</time>
      </trkpt>
      <trkpt lat="42.89648" lon="0.1996">
        <ele>2051</ele>
        <time>2023-08-24T13:01:43Z</time>
      </trkpt>
      <trkpt lat="42.89662" lon="0.19994">
        <ele>2052</ele>
        <time>2023-08-24T13:02:26Z</time>
      </trkpt>
      <trkpt lat="42.89657" lon="0.20018">
        <ele>2050</ele>
        <time>2023-08-24T13:02:55Z</time>
      </trkpt>
      <trkpt lat="42.89661" lon="0.20029">
        <ele>2048</ele>
        <time>2023-08-24T13:03:11Z</time>
      </trkpt>
      <trkpt lat="42.89665" lon="0.20041">
        <ele>2045</ele>
        <time>2023-08-24T13:04:52Z</time>
      </trkpt>
      <trkpt lat="42.89673" lon="0.20047">
        <ele>2044</ele>
        <time>2023-08-24T13:05:15Z</time>
      </trkpt>
      <trkpt lat="42.89679" lon="0.20037">
        <ele>2044</ele>
        <time>2023-08-24T13:05:35Z</time>
      </trkpt>
      <trkpt lat="42.89696" lon="0.20028">
        <ele>2039</ele>
        <time>2023-08-24T13:06:19Z</time>
      </trkpt>
      <trkpt lat="42.89704" lon="0.2002">
        <ele>2038</ele>
        <time>2023-08-24T13:06:54Z</time>
      </trkpt>
      <trkpt lat="42.89713" lon="0.20019">
        <ele>2036</ele>
        <time>2023-08-24T13:07:06Z</time>
      </trkpt>
      <trkpt lat="42.89723" lon="0.20016">
        <ele>2034</ele>
        <time>2023-08-24T13:07:16Z</time>
      </trkpt>
      <trkpt lat="42.89732" lon="0.2001">
        <ele>2033</ele>
        <time>2023-08-24T13:07:25Z</time>
      </trkpt>
      <trkpt lat="42.8975" lon="0.20012">
        <ele>2033</ele>
        <time>2023-08-24T13:07:43Z</time>
      </trkpt>
      <trkpt lat="42.89756" lon="0.20021">
        <ele>2033</ele>
        <time>2023-08-24T13:07:55Z</time>
      </trkpt>
      <trkpt lat="42.89765" lon="0.20027">
        <ele>2033</ele>
        <time>2023-08-24T13:08:09Z</time>
      </trkpt>
      <trkpt lat="42.89792" lon="0.20045">
        <ele>2021</ele>
        <time>2023-08-24T13:08:57Z</time>
      </trkpt>
      <trkpt lat="42.89801" lon="0.20051">
        <ele>2021</ele>
        <time>2023-08-24T13:09:04Z</time>
      </trkpt>
      <trkpt lat="42.89819" lon="0.2006">
        <ele>2016</ele>
        <time>2023-08-24T13:09:23Z</time>
      </trkpt>
      <trkpt lat="42.89838" lon="0.20066">
        <ele>2013</ele>
        <time>2023-08-24T13:09:41Z</time>
      </trkpt>
      <trkpt lat="42.89866" lon="0.20071">
        <ele>2000</ele>
        <time>2023-08-24T13:10:13Z</time>
      </trkpt>
      <trkpt lat="42.89875" lon="0.20064">
        <ele>2000</ele>
        <time>2023-08-24T13:10:26Z</time>
      </trkpt>
      <trkpt lat="42.89883" lon="0.20071">
        <ele>2000</ele>
        <time>2023-08-24T13:10:42Z</time>
      </trkpt>
      <trkpt lat="42.89882" lon="0.20084">
        <ele>1999</ele>
        <time>2023-08-24T13:10:55Z</time>
      </trkpt>
      <trkpt lat="42.8988" lon="0.20096">
        <ele>1995</ele>
        <time>2023-08-24T13:11:04Z</time>
      </trkpt>
      <trkpt lat="42.89876" lon="0.20109">
        <ele>1993</ele>
        <time>2023-08-24T13:11:16Z</time>
      </trkpt>
      <trkpt lat="42.89861" lon="0.20146">
        <ele>1980</ele>
        <time>2023-08-24T13:11:47Z</time>
      </trkpt>
      <trkpt lat="42.89858" lon="0.20158">
        <ele>1977</ele>
        <time>2023-08-24T13:11:55Z</time>
      </trkpt>
      <trkpt lat="42.89865" lon="0.20183">
        <ele>1978</ele>
        <time>2023-08-24T13:12:14Z</time>
      </trkpt>
      <trkpt lat="42.89872" lon="0.20193">
        <ele>1977</ele>
        <time>2023-08-24T13:12:28Z</time>
      </trkpt>
      <trkpt lat="42.89887" lon="0.20211">
        <ele>1973</ele>
        <time>2023-08-24T13:12:43Z</time>
      </trkpt>
      <trkpt lat="42.89897" lon="0.20233">
        <ele>1972</ele>
        <time>2023-08-24T13:13:02Z</time>
      </trkpt>
      <trkpt lat="42.89906" lon="0.20238">
        <ele>1969</ele>
        <time>2023-08-24T13:13:12Z</time>
      </trkpt>
      <trkpt lat="42.8991" lon="0.2025">
        <ele>1969</ele>
        <time>2023-08-24T13:13:21Z</time>
      </trkpt>
      <trkpt lat="42.89925" lon="0.20267">
        <ele>1966</ele>
        <time>2023-08-24T13:13:37Z</time>
      </trkpt>
      <trkpt lat="42.89934" lon="0.20274">
        <ele>1967</ele>
        <time>2023-08-24T13:13:46Z</time>
      </trkpt>
      <trkpt lat="42.89945" lon="0.20294">
        <ele>1966</ele>
        <time>2023-08-24T13:14:02Z</time>
      </trkpt>
      <trkpt lat="42.89945" lon="0.20307">
        <ele>1965</ele>
        <time>2023-08-24T13:14:10Z</time>
      </trkpt>
      <trkpt lat="42.8995" lon="0.20332">
        <ele>1961</ele>
        <time>2023-08-24T13:14:26Z</time>
      </trkpt>
      <trkpt lat="42.89949" lon="0.20345">
        <ele>1952</ele>
        <time>2023-08-24T13:14:47Z</time>
      </trkpt>
      <trkpt lat="42.89961" lon="0.20365">
        <ele>1950</ele>
        <time>2023-08-24T13:15:03Z</time>
      </trkpt>
      <trkpt lat="42.89964" lon="0.20377">
        <ele>1949</ele>
        <time>2023-08-24T13:15:10Z</time>
      </trkpt>
      <trkpt lat="42.8997" lon="0.20402">
        <ele>1946</ele>
        <time>2023-08-24T13:15:26Z</time>
      </trkpt>
      <trkpt lat="42.89985" lon="0.20418">
        <ele>1943</ele>
        <time>2023-08-24T13:15:44Z</time>
      </trkpt>
      <trkpt lat="42.89992" lon="0.20428">
        <ele>1940</ele>
        <time>2023-08-24T13:15:53Z</time>
      </trkpt>
      <trkpt lat="42.90021" lon="0.2044">
        <ele>1937</ele>
        <time>2023-08-24T13:16:30Z</time>
      </trkpt>
      <trkpt lat="42.90029" lon="0.20446">
        <ele>1933</ele>
        <time>2023-08-24T13:16:52Z</time>
      </trkpt>
      <trkpt lat="42.90035" lon="0.20456">
        <ele>1932</ele>
        <time>2023-08-24T13:17:01Z</time>
      </trkpt>
      <trkpt lat="42.90042" lon="0.20464">
        <ele>1929</ele>
        <time>2023-08-24T13:17:10Z</time>
      </trkpt>
      <trkpt lat="42.90049" lon="0.20473">
        <ele>1927</ele>
        <time>2023-08-24T13:17:19Z</time>
      </trkpt>
      <trkpt lat="42.90055" lon="0.20484">
        <ele>1922</ele>
        <time>2023-08-24T13:17:29Z</time>
      </trkpt>
      <trkpt lat="42.90063" lon="0.20491">
        <ele>1921</ele>
        <time>2023-08-24T13:17:38Z</time>
      </trkpt>
      <trkpt lat="42.90073" lon="0.20513">
        <ele>1918</ele>
        <time>2023-08-24T13:17:56Z</time>
      </trkpt>
      <trkpt lat="42.90079" lon="0.20525">
        <ele>1913</ele>
        <time>2023-08-24T13:18:06Z</time>
      </trkpt>
      <trkpt lat="42.90084" lon="0.20536">
        <ele>1909</ele>
        <time>2023-08-24T13:18:16Z</time>
      </trkpt>
      <trkpt lat="42.9009" lon="0.20547">
        <ele>1907</ele>
        <time>2023-08-24T13:18:25Z</time>
      </trkpt>
      <trkpt lat="42.90097" lon="0.20556">
        <ele>1904</ele>
        <time>2023-08-24T13:18:33Z</time>
      </trkpt>
      <trkpt lat="42.90101" lon="0.20568">
        <ele>1902</ele>
        <time>2023-08-24T13:18:43Z</time>
      </trkpt>
      <trkpt lat="42.90112" lon="0.2059">
        <ele>1899</ele>
        <time>2023-08-24T13:19:00Z</time>
      </trkpt>
      <trkpt lat="42.90121" lon="0.20614">
        <ele>1895</ele>
        <time>2023-08-24T13:19:18Z</time>
      </trkpt>
      <trkpt lat="42.90127" lon="0.20624">
        <ele>1892</ele>
        <time>2023-08-24T13:19:27Z</time>
      </trkpt>
      <trkpt lat="42.90131" lon="0.20635">
        <ele>1890</ele>
        <time>2023-08-24T13:19:37Z</time>
      </trkpt>
      <trkpt lat="42.90133" lon="0.20649">
        <ele>1882</ele>
        <time>2023-08-24T13:19:48Z</time>
      </trkpt>
      <trkpt lat="42.90139" lon="0.2066">
        <ele>1881</ele>
        <time>2023-08-24T13:19:56Z</time>
      </trkpt>
      <trkpt lat="42.90151" lon="0.2068">
        <ele>1878</ele>
        <time>2023-08-24T13:20:11Z</time>
      </trkpt>
      <trkpt lat="42.90157" lon="0.20692">
        <ele>1872</ele>
        <time>2023-08-24T13:20:20Z</time>
      </trkpt>
      <trkpt lat="42.9016" lon="0.20705">
        <ele>1870</ele>
        <time>2023-08-24T13:20:30Z</time>
      </trkpt>
      <trkpt lat="42.90166" lon="0.20715">
        <ele>1867</ele>
        <time>2023-08-24T13:20:37Z</time>
      </trkpt>
      <trkpt lat="42.90172" lon="0.20725">
        <ele>1865</ele>
        <time>2023-08-24T13:20:50Z</time>
      </trkpt>
      <trkpt lat="42.90177" lon="0.20737">
        <ele>1861</ele>
        <time>2023-08-24T13:21:01Z</time>
      </trkpt>
      <trkpt lat="42.90186" lon="0.20743">
        <ele>1860</ele>
        <time>2023-08-24T13:21:12Z</time>
      </trkpt>
      <trkpt lat="42.90183" lon="0.20757">
        <ele>1857</ele>
        <time>2023-08-24T13:21:26Z</time>
      </trkpt>
      <trkpt lat="42.90173" lon="0.20762">
        <ele>1855</ele>
        <time>2023-08-24T13:21:34Z</time>
      </trkpt>
      <trkpt lat="42.90169" lon="0.20775">
        <ele>1848</ele>
        <time>2023-08-24T13:21:49Z</time>
      </trkpt>
      <trkpt lat="42.90172" lon="0.20788">
        <ele>1847</ele>
        <time>2023-08-24T13:21:58Z</time>
      </trkpt>
      <trkpt lat="42.90181" lon="0.20794">
        <ele>1840</ele>
        <time>2023-08-24T13:23:39Z</time>
      </trkpt>
      <trkpt lat="42.9019" lon="0.20797">
        <ele>1834</ele>
        <time>2023-08-24T13:23:49Z</time>
      </trkpt>
      <trkpt lat="42.90198" lon="0.20804">
        <ele>1831</ele>
        <time>2023-08-24T13:23:59Z</time>
      </trkpt>
      <trkpt lat="42.90209" lon="0.20803">
        <ele>1828</ele>
        <time>2023-08-24T13:24:09Z</time>
      </trkpt>
      <trkpt lat="42.90216" lon="0.20812">
        <ele>1825</ele>
        <time>2023-08-24T13:24:21Z</time>
      </trkpt>
      <trkpt lat="42.90216" lon="0.20826">
        <ele>1824</ele>
        <time>2023-08-24T13:24:33Z</time>
      </trkpt>
      <trkpt lat="42.90219" lon="0.20838">
        <ele>1815</ele>
        <time>2023-08-24T13:24:45Z</time>
      </trkpt>
      <trkpt lat="42.90229" lon="0.20838">
        <ele>1811</ele>
        <time>2023-08-24T13:25:00Z</time>
      </trkpt>
      <trkpt lat="42.90238" lon="0.20844">
        <ele>1804</ele>
        <time>2023-08-24T13:25:12Z</time>
      </trkpt>
      <trkpt lat="42.90249" lon="0.20844">
        <ele>1803</ele>
        <time>2023-08-24T13:25:22Z</time>
      </trkpt>
      <trkpt lat="42.90258" lon="0.20838">
        <ele>1804</ele>
        <time>2023-08-24T13:25:33Z</time>
      </trkpt>
      <trkpt lat="42.90268" lon="0.20835">
        <ele>1802</ele>
        <time>2023-08-24T13:25:59Z</time>
      </trkpt>
      <trkpt lat="42.90278" lon="0.20839">
        <ele>1795</ele>
        <time>2023-08-24T13:26:22Z</time>
      </trkpt>
      <trkpt lat="42.90281" lon="0.20852">
        <ele>1789</ele>
        <time>2023-08-24T13:26:46Z</time>
      </trkpt>
      <trkpt lat="42.90288" lon="0.20862">
        <ele>1774</ele>
        <time>2023-08-24T13:27:14Z</time>
      </trkpt>
      <trkpt lat="42.90308" lon="0.20862">
        <ele>1771</ele>
        <time>2023-08-24T13:27:32Z</time>
      </trkpt>
      <trkpt lat="42.90334" lon="0.20882">
        <ele>1771</ele>
        <time>2023-08-24T13:28:02Z</time>
      </trkpt>
      <trkpt lat="42.90344" lon="0.20886">
        <ele>1767</ele>
        <time>2023-08-24T13:28:16Z</time>
      </trkpt>
      <trkpt lat="42.90368" lon="0.20908">
        <ele>1766</ele>
        <time>2023-08-24T13:28:49Z</time>
      </trkpt>
      <trkpt lat="42.90387" lon="0.20917">
        <ele>1760</ele>
        <time>2023-08-24T13:29:12Z</time>
      </trkpt>
      <trkpt lat="42.90392" lon="0.20929">
        <ele>1758</ele>
        <time>2023-08-24T13:29:23Z</time>
      </trkpt>
      <trkpt lat="42.904" lon="0.20935">
        <ele>1755</ele>
        <time>2023-08-24T13:29:36Z</time>
      </trkpt>
      <trkpt lat="42.90417" lon="0.20948">
        <ele>1750</ele>
        <time>2023-08-24T13:29:55Z</time>
      </trkpt>
      <trkpt lat="42.90427" lon="0.20952">
        <ele>1746</ele>
        <time>2023-08-24T13:30:04Z</time>
      </trkpt>
      <trkpt lat="42.90436" lon="0.20954">
        <ele>1741</ele>
        <time>2023-08-24T13:30:13Z</time>
      </trkpt>
      <trkpt lat="42.90443" lon="0.20964">
        <ele>1737</ele>
        <time>2023-08-24T13:30:25Z</time>
      </trkpt>
      <trkpt lat="42.90449" lon="0.20973">
        <ele>1739</ele>
        <time>2023-08-24T13:30:40Z</time>
      </trkpt>
      <trkpt lat="42.90459" lon="0.20971">
        <ele>1740</ele>
        <time>2023-08-24T13:30:52Z</time>
      </trkpt>
      <trkpt lat="42.90462" lon="0.20959">
        <ele>1741</ele>
        <time>2023-08-24T13:31:03Z</time>
      </trkpt>
      <trkpt lat="42.90468" lon="0.20949">
        <ele>1733</ele>
        <time>2023-08-24T13:33:02Z</time>
      </trkpt>
      <trkpt lat="42.90477" lon="0.20947">
        <ele>1733</ele>
        <time>2023-08-24T13:33:11Z</time>
      </trkpt>
      <trkpt lat="42.90484" lon="0.20958">
        <ele>1733</ele>
        <time>2023-08-24T13:33:24Z</time>
      </trkpt>
      <trkpt lat="42.90493" lon="0.20963">
        <ele>1729</ele>
        <time>2023-08-24T13:33:40Z</time>
      </trkpt>
      <trkpt lat="42.90499" lon="0.20953">
        <ele>1727</ele>
        <time>2023-08-24T13:33:49Z</time>
      </trkpt>
      <trkpt lat="42.90505" lon="0.20943">
        <ele>1721</ele>
        <time>2023-08-24T13:34:00Z</time>
      </trkpt>
      <trkpt lat="42.90504" lon="0.2093">
        <ele>1716</ele>
        <time>2023-08-24T13:34:56Z</time>
      </trkpt>
      <trkpt lat="42.90514" lon="0.2093">
        <ele>1714</ele>
        <time>2023-08-24T13:35:16Z</time>
      </trkpt>
      <trkpt lat="42.90522" lon="0.20921">
        <ele>1708</ele>
        <time>2023-08-24T13:35:34Z</time>
      </trkpt>
      <trkpt lat="42.90532" lon="0.20918">
        <ele>1706</ele>
        <time>2023-08-24T13:35:47Z</time>
      </trkpt>
      <trkpt lat="42.9055" lon="0.20913">
        <ele>1696</ele>
        <time>2023-08-24T13:36:18Z</time>
      </trkpt>
      <trkpt lat="42.90559" lon="0.20913">
        <ele>1688</ele>
        <time>2023-08-24T13:36:29Z</time>
      </trkpt>
      <trkpt lat="42.90565" lon="0.20925">
        <ele>1686</ele>
        <time>2023-08-24T13:37:07Z</time>
      </trkpt>
      <trkpt lat="42.9056" lon="0.20937">
        <ele>1682</ele>
        <time>2023-08-24T13:37:18Z</time>
      </trkpt>
      <trkpt lat="42.90554" lon="0.20948">
        <ele>1679</ele>
        <time>2023-08-24T13:37:28Z</time>
      </trkpt>
      <trkpt lat="42.90551" lon="0.20959">
        <ele>1676</ele>
        <time>2023-08-24T13:37:35Z</time>
      </trkpt>
      <trkpt lat="42.90548" lon="0.20972">
        <ele>1673</ele>
        <time>2023-08-24T13:37:44Z</time>
      </trkpt>
      <trkpt lat="42.90547" lon="0.20985">
        <ele>1668</ele>
        <time>2023-08-24T13:37:54Z</time>
      </trkpt>
      <trkpt lat="42.90543" lon="0.20997">
        <ele>1665</ele>
        <time>2023-08-24T13:38:03Z</time>
      </trkpt>
      <trkpt lat="42.90539" lon="0.21008">
        <ele>1659</ele>
        <time>2023-08-24T13:38:11Z</time>
      </trkpt>
      <trkpt lat="42.90535" lon="0.2102">
        <ele>1657</ele>
        <time>2023-08-24T13:38:21Z</time>
      </trkpt>
      <trkpt lat="42.90532" lon="0.21032">
        <ele>1653</ele>
        <time>2023-08-24T13:38:35Z</time>
      </trkpt>
      <trkpt lat="42.90534" lon="0.21044">
        <ele>1652</ele>
        <time>2023-08-24T13:39:33Z</time>
      </trkpt>
      <trkpt lat="42.9053" lon="0.21058">
        <ele>1649</ele>
        <time>2023-08-24T13:39:46Z</time>
      </trkpt>
      <trkpt lat="42.90529" lon="0.21071">
        <ele>1648</ele>
        <time>2023-08-24T13:39:54Z</time>
      </trkpt>
      <trkpt lat="42.90531" lon="0.21084">
        <ele>1645</ele>
        <time>2023-08-24T13:40:03Z</time>
      </trkpt>
      <trkpt lat="42.90541" lon="0.21085">
        <ele>1642</ele>
        <time>2023-08-24T13:40:15Z</time>
      </trkpt>
      <trkpt lat="42.9055" lon="0.2108">
        <ele>1636</ele>
        <time>2023-08-24T13:40:24Z</time>
      </trkpt>
      <trkpt lat="42.90556" lon="0.21089">
        <ele>1635</ele>
        <time>2023-08-24T13:40:33Z</time>
      </trkpt>
      <trkpt lat="42.90565" lon="0.21095">
        <ele>1633</ele>
        <time>2023-08-24T13:40:41Z</time>
      </trkpt>
      <trkpt lat="42.90574" lon="0.21091">
        <ele>1633</ele>
        <time>2023-08-24T13:40:47Z</time>
      </trkpt>
      <trkpt lat="42.90591" lon="0.21103">
        <ele>1631</ele>
        <time>2023-08-24T13:41:05Z</time>
      </trkpt>
      <trkpt lat="42.90601" lon="0.21107">
        <ele>1626</ele>
        <time>2023-08-24T13:41:15Z</time>
      </trkpt>
      <trkpt lat="42.90608" lon="0.21117">
        <ele>1623</ele>
        <time>2023-08-24T13:41:24Z</time>
      </trkpt>
      <trkpt lat="42.90628" lon="0.21127">
        <ele>1618</ele>
        <time>2023-08-24T13:41:42Z</time>
      </trkpt>
      <trkpt lat="42.90638" lon="0.21125">
        <ele>1618</ele>
        <time>2023-08-24T13:41:50Z</time>
      </trkpt>
      <trkpt lat="42.90648" lon="0.21127">
        <ele>1617</ele>
        <time>2023-08-24T13:41:58Z</time>
      </trkpt>
      <trkpt lat="42.90668" lon="0.21131">
        <ele>1614</ele>
        <time>2023-08-24T13:42:15Z</time>
      </trkpt>
      <trkpt lat="42.90687" lon="0.21129">
        <ele>1608</ele>
        <time>2023-08-24T13:42:33Z</time>
      </trkpt>
      <trkpt lat="42.90697" lon="0.21131">
        <ele>1606</ele>
        <time>2023-08-24T13:42:44Z</time>
      </trkpt>
      <trkpt lat="42.90701" lon="0.21143">
        <ele>1603</ele>
        <time>2023-08-24T13:42:55Z</time>
      </trkpt>
      <trkpt lat="42.90703" lon="0.21155">
        <ele>1598</ele>
        <time>2023-08-24T13:43:05Z</time>
      </trkpt>
      <trkpt lat="42.9071" lon="0.21165">
        <ele>1596</ele>
        <time>2023-08-24T13:43:16Z</time>
      </trkpt>
      <trkpt lat="42.90714" lon="0.21177">
        <ele>1591</ele>
        <time>2023-08-24T13:43:25Z</time>
      </trkpt>
      <trkpt lat="42.90735" lon="0.21204">
        <ele>1593</ele>
        <time>2023-08-24T13:44:01Z</time>
      </trkpt>
      <trkpt lat="42.90741" lon="0.21214">
        <ele>1591</ele>
        <time>2023-08-24T13:44:09Z</time>
      </trkpt>
      <trkpt lat="42.90747" lon="0.21225">
        <ele>1589</ele>
        <time>2023-08-24T13:44:21Z</time>
      </trkpt>
      <trkpt lat="42.90759" lon="0.21262">
        <ele>1588</ele>
        <time>2023-08-24T13:44:50Z</time>
      </trkpt>
      <trkpt lat="42.90779" lon="0.21292">
        <ele>1587</ele>
        <time>2023-08-24T13:45:20Z</time>
      </trkpt>
      <trkpt lat="42.90795" lon="0.21306">
        <ele>1584</ele>
        <time>2023-08-24T13:45:37Z</time>
      </trkpt>
      <trkpt lat="42.90802" lon="0.21315">
        <ele>1582</ele>
        <time>2023-08-24T13:45:48Z</time>
      </trkpt>
      <trkpt lat="42.90812" lon="0.21318">
        <ele>1582</ele>
        <time>2023-08-24T13:45:56Z</time>
      </trkpt>
      <trkpt lat="42.90834" lon="0.21345">
        <ele>1583</ele>
        <time>2023-08-24T13:46:19Z</time>
      </trkpt>
      <trkpt lat="42.90849" lon="0.21363">
        <ele>1580</ele>
        <time>2023-08-24T13:46:35Z</time>
      </trkpt>
      <trkpt lat="42.90854" lon="0.21375">
        <ele>1578</ele>
        <time>2023-08-24T13:46:45Z</time>
      </trkpt>
      <trkpt lat="42.90861" lon="0.21385">
        <ele>1579</ele>
        <time>2023-08-24T13:46:53Z</time>
      </trkpt>
      <trkpt lat="42.90879" lon="0.21396">
        <ele>1579</ele>
        <time>2023-08-24T13:47:09Z</time>
      </trkpt>
      <trkpt lat="42.90901" lon="0.21423">
        <ele>1575</ele>
        <time>2023-08-24T13:47:37Z</time>
      </trkpt>
      <trkpt lat="42.9091" lon="0.21428">
        <ele>1575</ele>
        <time>2023-08-24T13:47:46Z</time>
      </trkpt>
      <trkpt lat="42.90917" lon="0.21436">
        <ele>1576</ele>
        <time>2023-08-24T13:47:53Z</time>
      </trkpt>
      <trkpt lat="42.90926" lon="0.21439">
        <ele>1576</ele>
        <time>2023-08-24T13:48:10Z</time>
      </trkpt>
      <trkpt lat="42.90944" lon="0.21451">
        <ele>1572</ele>
        <time>2023-08-24T13:48:26Z</time>
      </trkpt>
      <trkpt lat="42.90976" lon="0.21478">
        <ele>1567</ele>
        <time>2023-08-24T13:49:01Z</time>
      </trkpt>
      <trkpt lat="42.90983" lon="0.21486">
        <ele>1567</ele>
        <time>2023-08-24T13:49:10Z</time>
      </trkpt>
      <trkpt lat="42.91003" lon="0.21492">
        <ele>1568</ele>
        <time>2023-08-24T13:49:27Z</time>
      </trkpt>
      <trkpt lat="42.9101" lon="0.21502">
        <ele>1566</ele>
        <time>2023-08-24T13:49:35Z</time>
      </trkpt>
      <trkpt lat="42.91018" lon="0.21507">
        <ele>1564</ele>
        <time>2023-08-24T13:49:46Z</time>
      </trkpt>
      <trkpt lat="42.9103" lon="0.21528">
        <ele>1564</ele>
        <time>2023-08-24T13:50:05Z</time>
      </trkpt>
      <trkpt lat="42.91039" lon="0.2153">
        <ele>1561</ele>
        <time>2023-08-24T13:50:21Z</time>
      </trkpt>
      <trkpt lat="42.91067" lon="0.21534">
        <ele>1559</ele>
        <time>2023-08-24T13:51:01Z</time>
      </trkpt>
      <trkpt lat="42.91077" lon="0.21533">
        <ele>1558</ele>
        <time>2023-08-24T13:51:12Z</time>
      </trkpt>
      <trkpt lat="42.91092" lon="0.21516">
        <ele>1558</ele>
        <time>2023-08-24T13:51:29Z</time>
      </trkpt>
      <trkpt lat="42.91099" lon="0.21505">
        <ele>1561</ele>
        <time>2023-08-24T13:51:43Z</time>
      </trkpt>
      <trkpt lat="42.91104" lon="0.21494">
        <ele>1564</ele>
        <time>2023-08-24T13:51:54Z</time>
      </trkpt>
      <trkpt lat="42.91127" lon="0.21472">
        <ele>1556.4</ele>
        <time>2023-08-24T04:58:23Z</time>
      </trkpt>
      <trkpt lat="42.91175" lon="0.21519">
        <ele>1557.5</ele>
        <time>2023-08-24T04:58:23Z</time>
      </trkpt>
      <trkpt lat="42.91177" lon="0.21531">
        <ele>1559.2</ele>
        <time>2023-08-24T04:58:23Z</time>
      </trkpt>
      <trkpt lat="42.91216" lon="0.21573">
        <ele>1556</ele>
        <time>2023-08-24T04:58:23Z</time>
      </trkpt>
      <trkpt lat="42.91407" lon="0.21676">
        <ele>1557.5</ele>
        <time>2023-08-24T04:58:23Z</time>
      </trkpt>
      <trkpt lat="42.91452" lon="0.21677">
        <ele>1556.4</ele>
        <time>2023-08-24T04:58:23Z</time>
      </trkpt>
      <trkpt lat="42.91473" lon="0.21664">
        <ele>1556.3</ele>
        <time>2023-08-24T04:58:23Z</time>
      </trkpt>
      <trkpt lat="42.91521" lon="0.21602">
        <ele>1554.1</ele>
        <time>2023-08-24T04:58:23Z</time>
      </trkpt>
      <trkpt lat="42.9159" lon="0.21376">
        <ele>1531.9</ele>
        <time>2023-08-24T04:58:23Z</time>
      </trkpt>
      <trkpt lat="42.91587" lon="0.21352">
        <ele>1523.2</ele>
        <time>2023-08-24T04:58:23Z</time>
      </trkpt>
      <trkpt lat="42.91592" lon="0.2133">
        <ele>1513.8</ele>
        <time>2023-08-24T04:58:23Z</time>
      </trkpt>
      <trkpt lat="42.91562" lon="0.21259">
        <ele>1491.8</ele>
        <time>2023-08-24T04:58:23Z</time>
      </trkpt>
      <trkpt lat="42.91559" lon="0.21241">
        <ele>1487.2</ele>
        <time>2023-08-24T04:58:23Z</time>
      </trkpt>
      <trkpt lat="42.9156" lon="0.2123">
        <ele>1484.3</ele>
        <time>2023-08-24T04:58:23Z</time>
      </trkpt>
      <trkpt lat="42.91568" lon="0.21226">
        <ele>1479.8</ele>
        <time>2023-08-24T04:58:23Z</time>
      </trkpt>
      <trkpt lat="42.91572" lon="0.21215">
        <ele>1475</ele>
        <time>2023-08-24T04:58:23Z</time>
      </trkpt>
      <trkpt lat="42.91569" lon="0.21206">
        <ele>1473.2</ele>
        <time>2023-08-24T04:58:23Z</time>
      </trkpt>
      <trkpt lat="42.9157" lon="0.21195">
        <ele>1469.6</ele>
        <time>2023-08-24T04:58:23Z</time>
      </trkpt>
      <trkpt lat="42.91567" lon="0.21178">
        <ele>1466.9</ele>
        <time>2023-08-24T04:58:23Z</time>
      </trkpt>
      <trkpt lat="42.91573" lon="0.21168">
        <ele>1461.2</ele>
        <time>2023-08-24T04:58:23Z</time>
      </trkpt>
      <trkpt lat="42.91583" lon="0.21159">
        <ele>1453.8</ele>
        <time>2023-08-24T04:58:23Z</time>
      </trkpt>
      <trkpt lat="42.91581" lon="0.21147">
        <ele>1452.2</ele>
        <time>2023-08-24T04:58:23Z</time>
      </trkpt>
      <trkpt lat="42.91586" lon="0.21139">
        <ele>1447.9</ele>
        <time>2023-08-24T04:58:23Z</time>
      </trkpt>
      <trkpt lat="42.91593" lon="0.21104">
        <ele>1439.4</ele>
        <time>2023-08-24T04:58:23Z</time>
      </trkpt>
      <trkpt lat="42.91601" lon="0.21084">
        <ele>1433.6</ele>
        <time>2023-08-24T04:58:23Z</time>
      </trkpt>
      <trkpt lat="42.91608" lon="0.21031">
        <ele>1426</ele>
        <time>2023-08-24T04:58:23Z</time>
      </trkpt>
      <trkpt lat="42.91615" lon="0.21013">
        <ele>1423.2</ele>
        <time>2023-08-24T04:58:23Z</time>
      </trkpt>
      <trkpt lat="42.91622" lon="0.21006">
        <ele>1420.5</ele>
        <time>2023-08-24T04:58:23Z</time>
      </trkpt>
      <trkpt lat="42.91628" lon="0.20993">
        <ele>1418.7</ele>
        <time>2023-08-24T04:58:23Z</time>
      </trkpt>
      <trkpt lat="42.91636" lon="0.20988">
        <ele>1415.5</ele>
        <time>2023-08-24T04:58:23Z</time>
      </trkpt>
      <trkpt lat="42.91642" lon="0.20969">
        <ele>1415</ele>
        <time>2023-08-24T04:58:23Z</time>
      </trkpt>
      <trkpt lat="42.91649" lon="0.20957">
        <ele>1416</ele>
        <time>2023-08-24T04:58:23Z</time>
      </trkpt>
      <trkpt lat="42.9166" lon="0.20953">
        <ele>1415.9</ele>
        <time>2023-08-24T04:58:23Z</time>
      </trkpt>
      <trkpt lat="42.91658" lon="0.20908">
        <ele>1424.8</ele>
        <time>2023-08-24T04:58:23Z</time>
      </trkpt>
      <trkpt lat="42.9168" lon="0.20942">
        <ele>1418</ele>
        <time>2023-08-24T04:58:23Z</time>
      </trkpt>
      <trkpt lat="42.91698" lon="0.20948">
        <ele>1416.9</ele>
        <time>2023-08-24T04:58:23Z</time>
      </trkpt>
      <trkpt lat="42.91704" lon="0.20956">
        <ele>1414</ele>
        <time>2023-08-24T04:58:23Z</time>
      </trkpt>
      <trkpt lat="42.91713" lon="0.20958">
        <ele>1412.6</ele>
        <time>2023-08-24T04:58:23Z</time>
      </trkpt>
      <trkpt lat="42.91724" lon="0.20952">
        <ele>1413</ele>
        <time>2023-08-24T04:58:23Z</time>
      </trkpt>
    </trkseg>
  </trk>
</gpx>